<?xml version="1.0" encoding="UTF-8" standalone="no" ?>
<gpx xmlns="http://www.topografix.com/GPX/1/1" xmlns:xsi="http://www.w3.org/2001/XMLSchema-instance" xsi:schemaLocation="http://www.topografix.com/GPX/1/1 http://www.topografix.com/GPX/1/1/gpx.xsd" version="1.1" creator="VisuGPX - https://www.visugpx.com">
  <metadata>
    <name>bellenaves jeudi 26/11</name>
    <desc><![CDATA[sortie bellenaves]]></desc>
  </metadata>
  <trk>
    <name><![CDATA[Sequence 1]]></name>
    <trkseg>
      <trkpt lat="46.19857" lon="3.07859">
        <ele>246</ele>
        <time>2015-11-26T13:07:19Z</time>
      </trkpt>
      <trkpt lat="46.19857" lon="3.07859">
        <ele>246</ele>
        <time>2015-11-26T13:07:22Z</time>
      </trkpt>
      <trkpt lat="46.19857" lon="3.07859">
        <ele>246</ele>
        <time>2015-11-26T13:07:25Z</time>
      </trkpt>
      <trkpt lat="46.19857" lon="3.07859">
        <ele>246</ele>
        <time>2015-11-26T13:07:30Z</time>
      </trkpt>
      <trkpt lat="46.19857" lon="3.07859">
        <ele>246</ele>
        <time>2015-11-26T13:07:31Z</time>
      </trkpt>
      <trkpt lat="46.19857" lon="3.07859">
        <ele>246</ele>
        <time>2015-11-26T13:07:34Z</time>
      </trkpt>
      <trkpt lat="46.19857" lon="3.07859">
        <ele>246</ele>
        <time>2015-11-26T13:07:37Z</time>
      </trkpt>
      <trkpt lat="46.19858" lon="3.07859">
        <ele>246</ele>
        <time>2015-11-26T13:07:40Z</time>
      </trkpt>
      <trkpt lat="46.19858" lon="3.07859">
        <ele>246</ele>
        <time>2015-11-26T13:07:44Z</time>
      </trkpt>
      <trkpt lat="46.19858" lon="3.07859">
        <ele>246</ele>
        <time>2015-11-26T13:07:46Z</time>
      </trkpt>
      <trkpt lat="46.19858" lon="3.07859">
        <ele>246</ele>
        <time>2015-11-26T13:07:49Z</time>
      </trkpt>
      <trkpt lat="46.19858" lon="3.07859">
        <ele>246</ele>
        <time>2015-11-26T13:07:52Z</time>
      </trkpt>
      <trkpt lat="46.19858" lon="3.07859">
        <ele>246</ele>
        <time>2015-11-26T13:07:55Z</time>
      </trkpt>
      <trkpt lat="46.19858" lon="3.07859">
        <ele>246</ele>
        <time>2015-11-26T13:07:58Z</time>
      </trkpt>
      <trkpt lat="46.19858" lon="3.07859">
        <ele>246</ele>
        <time>2015-11-26T13:08:03Z</time>
      </trkpt>
      <trkpt lat="46.19858" lon="3.07859">
        <ele>246</ele>
        <time>2015-11-26T13:08:06Z</time>
      </trkpt>
      <trkpt lat="46.19858" lon="3.07859">
        <ele>247</ele>
        <time>2015-11-26T13:08:09Z</time>
      </trkpt>
      <trkpt lat="46.19858" lon="3.07859">
        <ele>247</ele>
        <time>2015-11-26T13:08:12Z</time>
      </trkpt>
      <trkpt lat="46.19858" lon="3.07859">
        <ele>247</ele>
        <time>2015-11-26T13:08:13Z</time>
      </trkpt>
      <trkpt lat="46.19858" lon="3.07859">
        <ele>247</ele>
        <time>2015-11-26T13:08:16Z</time>
      </trkpt>
      <trkpt lat="46.19858" lon="3.07859">
        <ele>247</ele>
        <time>2015-11-26T13:08:19Z</time>
      </trkpt>
      <trkpt lat="46.19858" lon="3.07859">
        <ele>247</ele>
        <time>2015-11-26T13:08:22Z</time>
      </trkpt>
      <trkpt lat="46.19858" lon="3.07859">
        <ele>247</ele>
        <time>2015-11-26T13:08:25Z</time>
      </trkpt>
      <trkpt lat="46.19858" lon="3.07859">
        <ele>247</ele>
        <time>2015-11-26T13:08:28Z</time>
      </trkpt>
      <trkpt lat="46.19862" lon="3.07864">
        <ele>238</ele>
        <time>2015-11-26T13:09:14Z</time>
      </trkpt>
      <trkpt lat="46.19862" lon="3.07864">
        <ele>238</ele>
        <time>2015-11-26T13:09:17Z</time>
      </trkpt>
      <trkpt lat="46.19862" lon="3.07864">
        <ele>239</ele>
        <time>2015-11-26T13:09:19Z</time>
      </trkpt>
      <trkpt lat="46.19862" lon="3.07864">
        <ele>239</ele>
        <time>2015-11-26T13:09:23Z</time>
      </trkpt>
      <trkpt lat="46.19964" lon="3.07831">
        <ele>261</ele>
        <time>2015-11-26T13:09:59Z</time>
      </trkpt>
      <trkpt lat="46.1997" lon="3.07827">
        <ele>262</ele>
        <time>2015-11-26T13:10:04Z</time>
      </trkpt>
      <trkpt lat="46.19989" lon="3.07822">
        <ele>254</ele>
        <time>2015-11-26T13:10:13Z</time>
      </trkpt>
      <trkpt lat="46.20021" lon="3.07819">
        <ele>260</ele>
        <time>2015-11-26T13:10:34Z</time>
      </trkpt>
      <trkpt lat="46.20031" lon="3.07824">
        <ele>263</ele>
        <time>2015-11-26T13:10:45Z</time>
      </trkpt>
      <trkpt lat="46.20032" lon="3.07822">
        <ele>263</ele>
        <time>2015-11-26T13:10:46Z</time>
      </trkpt>
      <trkpt lat="46.20044" lon="3.07811">
        <ele>264</ele>
        <time>2015-11-26T13:10:57Z</time>
      </trkpt>
      <trkpt lat="46.20064" lon="3.07803">
        <ele>255</ele>
        <time>2015-11-26T13:11:09Z</time>
      </trkpt>
      <trkpt lat="46.20091" lon="3.078">
        <ele>249</ele>
        <time>2015-11-26T13:11:28Z</time>
      </trkpt>
      <trkpt lat="46.20107" lon="3.07795">
        <ele>243</ele>
        <time>2015-11-26T13:11:37Z</time>
      </trkpt>
      <trkpt lat="46.20114" lon="3.07793">
        <ele>242</ele>
        <time>2015-11-26T13:11:41Z</time>
      </trkpt>
      <trkpt lat="46.20121" lon="3.07783">
        <ele>239</ele>
        <time>2015-11-26T13:11:55Z</time>
      </trkpt>
      <trkpt lat="46.20129" lon="3.07779">
        <ele>242</ele>
        <time>2015-11-26T13:12:03Z</time>
      </trkpt>
      <trkpt lat="46.20138" lon="3.07777">
        <ele>246</ele>
        <time>2015-11-26T13:12:21Z</time>
      </trkpt>
      <trkpt lat="46.20141" lon="3.07778">
        <ele>242</ele>
        <time>2015-11-26T13:12:25Z</time>
      </trkpt>
      <trkpt lat="46.20152" lon="3.0778">
        <ele>236</ele>
        <time>2015-11-26T13:12:37Z</time>
      </trkpt>
      <trkpt lat="46.20164" lon="3.07777">
        <ele>235</ele>
        <time>2015-11-26T13:12:48Z</time>
      </trkpt>
      <trkpt lat="46.20175" lon="3.07776">
        <ele>236</ele>
        <time>2015-11-26T13:12:58Z</time>
      </trkpt>
      <trkpt lat="46.20188" lon="3.07773">
        <ele>240</ele>
        <time>2015-11-26T13:13:11Z</time>
      </trkpt>
      <trkpt lat="46.20203" lon="3.07767">
        <ele>244</ele>
        <time>2015-11-26T13:13:26Z</time>
      </trkpt>
      <trkpt lat="46.20218" lon="3.07763">
        <ele>232</ele>
        <time>2015-11-26T13:13:36Z</time>
      </trkpt>
      <trkpt lat="46.20223" lon="3.0775">
        <ele>226</ele>
        <time>2015-11-26T13:13:44Z</time>
      </trkpt>
      <trkpt lat="46.20222" lon="3.07728">
        <ele>219</ele>
        <time>2015-11-26T13:13:55Z</time>
      </trkpt>
      <trkpt lat="46.20232" lon="3.07718">
        <ele>217</ele>
        <time>2015-11-26T13:14:13Z</time>
      </trkpt>
      <trkpt lat="46.20234" lon="3.07719">
        <ele>217</ele>
        <time>2015-11-26T13:14:15Z</time>
      </trkpt>
      <trkpt lat="46.20248" lon="3.07721">
        <ele>222</ele>
        <time>2015-11-26T13:14:26Z</time>
      </trkpt>
      <trkpt lat="46.20275" lon="3.07725">
        <ele>226</ele>
        <time>2015-11-26T13:14:46Z</time>
      </trkpt>
      <trkpt lat="46.20291" lon="3.07714">
        <ele>228</ele>
        <time>2015-11-26T13:14:55Z</time>
      </trkpt>
      <trkpt lat="46.20297" lon="3.0771">
        <ele>227</ele>
        <time>2015-11-26T13:15:03Z</time>
      </trkpt>
      <trkpt lat="46.20304" lon="3.07705">
        <ele>222</ele>
        <time>2015-11-26T13:15:10Z</time>
      </trkpt>
      <trkpt lat="46.20322" lon="3.07689">
        <ele>214</ele>
        <time>2015-11-26T13:15:29Z</time>
      </trkpt>
      <trkpt lat="46.20341" lon="3.07673">
        <ele>213</ele>
        <time>2015-11-26T13:15:42Z</time>
      </trkpt>
      <trkpt lat="46.20346" lon="3.07669">
        <ele>212</ele>
        <time>2015-11-26T13:15:44Z</time>
      </trkpt>
      <trkpt lat="46.20378" lon="3.07639">
        <ele>203</ele>
        <time>2015-11-26T13:16:03Z</time>
      </trkpt>
      <trkpt lat="46.20381" lon="3.07636">
        <ele>202</ele>
        <time>2015-11-26T13:16:05Z</time>
      </trkpt>
      <trkpt lat="46.20403" lon="3.07622">
        <ele>206</ele>
        <time>2015-11-26T13:16:19Z</time>
      </trkpt>
      <trkpt lat="46.20412" lon="3.0762">
        <ele>207</ele>
        <time>2015-11-26T13:16:27Z</time>
      </trkpt>
      <trkpt lat="46.20424" lon="3.07617">
        <ele>209</ele>
        <time>2015-11-26T13:16:38Z</time>
      </trkpt>
      <trkpt lat="46.20444" lon="3.0762">
        <ele>212</ele>
        <time>2015-11-26T13:16:50Z</time>
      </trkpt>
      <trkpt lat="46.20467" lon="3.07626">
        <ele>220</ele>
        <time>2015-11-26T13:17:09Z</time>
      </trkpt>
      <trkpt lat="46.20471" lon="3.07626">
        <ele>219</ele>
        <time>2015-11-26T13:17:12Z</time>
      </trkpt>
      <trkpt lat="46.20487" lon="3.07637">
        <ele>225</ele>
        <time>2015-11-26T13:17:30Z</time>
      </trkpt>
      <trkpt lat="46.20491" lon="3.07638">
        <ele>224</ele>
        <time>2015-11-26T13:17:33Z</time>
      </trkpt>
      <trkpt lat="46.20503" lon="3.07634">
        <ele>226</ele>
        <time>2015-11-26T13:17:44Z</time>
      </trkpt>
      <trkpt lat="46.20493" lon="3.07608">
        <ele>209</ele>
        <time>2015-11-26T13:18:04Z</time>
      </trkpt>
      <trkpt lat="46.20494" lon="3.07602">
        <ele>206</ele>
        <time>2015-11-26T13:18:07Z</time>
      </trkpt>
      <trkpt lat="46.20495" lon="3.0758">
        <ele>210</ele>
        <time>2015-11-26T13:18:22Z</time>
      </trkpt>
      <trkpt lat="46.20472" lon="3.07563">
        <ele>220</ele>
        <time>2015-11-26T13:18:38Z</time>
      </trkpt>
      <trkpt lat="46.2047" lon="3.07563">
        <ele>221</ele>
        <time>2015-11-26T13:18:40Z</time>
      </trkpt>
      <trkpt lat="46.20456" lon="3.07559">
        <ele>222</ele>
        <time>2015-11-26T13:18:57Z</time>
      </trkpt>
      <trkpt lat="46.20442" lon="3.07549">
        <ele>228</ele>
        <time>2015-11-26T13:19:06Z</time>
      </trkpt>
      <trkpt lat="46.20435" lon="3.07542">
        <ele>226</ele>
        <time>2015-11-26T13:19:12Z</time>
      </trkpt>
      <trkpt lat="46.2041" lon="3.07531">
        <ele>226</ele>
        <time>2015-11-26T13:19:33Z</time>
      </trkpt>
      <trkpt lat="46.20406" lon="3.07531">
        <ele>227</ele>
        <time>2015-11-26T13:19:35Z</time>
      </trkpt>
      <trkpt lat="46.20388" lon="3.0753">
        <ele>227</ele>
        <time>2015-11-26T13:19:51Z</time>
      </trkpt>
      <trkpt lat="46.20379" lon="3.0753">
        <ele>226</ele>
        <time>2015-11-26T13:20:01Z</time>
      </trkpt>
      <trkpt lat="46.20368" lon="3.07531">
        <ele>226</ele>
        <time>2015-11-26T13:20:08Z</time>
      </trkpt>
      <trkpt lat="46.20356" lon="3.0753">
        <ele>223</ele>
        <time>2015-11-26T13:20:18Z</time>
      </trkpt>
      <trkpt lat="46.20346" lon="3.07529">
        <ele>222</ele>
        <time>2015-11-26T13:20:29Z</time>
      </trkpt>
      <trkpt lat="46.20329" lon="3.07536">
        <ele>221</ele>
        <time>2015-11-26T13:20:47Z</time>
      </trkpt>
      <trkpt lat="46.20323" lon="3.0754">
        <ele>223</ele>
        <time>2015-11-26T13:20:51Z</time>
      </trkpt>
      <trkpt lat="46.20312" lon="3.07544">
        <ele>220</ele>
        <time>2015-11-26T13:21:02Z</time>
      </trkpt>
      <trkpt lat="46.20299" lon="3.0755">
        <ele>216</ele>
        <time>2015-11-26T13:21:14Z</time>
      </trkpt>
      <trkpt lat="46.20295" lon="3.07552">
        <ele>214</ele>
        <time>2015-11-26T13:21:24Z</time>
      </trkpt>
      <trkpt lat="46.20287" lon="3.07546">
        <ele>212</ele>
        <time>2015-11-26T13:21:44Z</time>
      </trkpt>
      <trkpt lat="46.20285" lon="3.07548">
        <ele>213</ele>
        <time>2015-11-26T13:21:46Z</time>
      </trkpt>
      <trkpt lat="46.20269" lon="3.07568">
        <ele>215</ele>
        <time>2015-11-26T13:22:07Z</time>
      </trkpt>
      <trkpt lat="46.20266" lon="3.07573">
        <ele>214</ele>
        <time>2015-11-26T13:22:12Z</time>
      </trkpt>
      <trkpt lat="46.20259" lon="3.07579">
        <ele>216</ele>
        <time>2015-11-26T13:22:19Z</time>
      </trkpt>
      <trkpt lat="46.20256" lon="3.07577">
        <ele>213</ele>
        <time>2015-11-26T13:22:38Z</time>
      </trkpt>
      <trkpt lat="46.20256" lon="3.07575">
        <ele>214</ele>
        <time>2015-11-26T13:22:39Z</time>
      </trkpt>
      <trkpt lat="46.20248" lon="3.07581">
        <ele>217</ele>
        <time>2015-11-26T13:22:50Z</time>
      </trkpt>
      <trkpt lat="46.20238" lon="3.07582">
        <ele>220</ele>
        <time>2015-11-26T13:23:01Z</time>
      </trkpt>
      <trkpt lat="46.20215" lon="3.07577">
        <ele>227</ele>
        <time>2015-11-26T13:23:22Z</time>
      </trkpt>
      <trkpt lat="46.20194" lon="3.0757">
        <ele>241</ele>
        <time>2015-11-26T13:23:33Z</time>
      </trkpt>
      <trkpt lat="46.20196" lon="3.07571">
        <ele>240</ele>
        <time>2015-11-26T13:23:34Z</time>
      </trkpt>
      <trkpt lat="46.20166" lon="3.07559">
        <ele>250</ele>
        <time>2015-11-26T13:23:55Z</time>
      </trkpt>
      <trkpt lat="46.2016" lon="3.07552">
        <ele>258</ele>
        <time>2015-11-26T13:24:03Z</time>
      </trkpt>
      <trkpt lat="46.20151" lon="3.07552">
        <ele>262</ele>
        <time>2015-11-26T13:24:07Z</time>
      </trkpt>
      <trkpt lat="46.2013" lon="3.07541">
        <ele>265</ele>
        <time>2015-11-26T13:24:23Z</time>
      </trkpt>
      <trkpt lat="46.2013" lon="3.07542">
        <ele>264</ele>
        <time>2015-11-26T13:24:31Z</time>
      </trkpt>
      <trkpt lat="46.2013" lon="3.07542">
        <ele>263</ele>
        <time>2015-11-26T13:24:32Z</time>
      </trkpt>
      <trkpt lat="46.20118" lon="3.07536">
        <ele>268</ele>
        <time>2015-11-26T13:24:47Z</time>
      </trkpt>
      <trkpt lat="46.20105" lon="3.0754">
        <ele>269</ele>
        <time>2015-11-26T13:25:00Z</time>
      </trkpt>
      <trkpt lat="46.201" lon="3.07533">
        <ele>267</ele>
        <time>2015-11-26T13:25:07Z</time>
      </trkpt>
      <trkpt lat="46.20153" lon="3.07543">
        <ele>282</ele>
        <time>2015-11-26T13:25:25Z</time>
      </trkpt>
      <trkpt lat="46.20157" lon="3.07543">
        <ele>283</ele>
        <time>2015-11-26T13:25:27Z</time>
      </trkpt>
      <trkpt lat="46.20168" lon="3.07535">
        <ele>287</ele>
        <time>2015-11-26T13:25:38Z</time>
      </trkpt>
      <trkpt lat="46.20176" lon="3.07541">
        <ele>294</ele>
        <time>2015-11-26T13:25:49Z</time>
      </trkpt>
      <trkpt lat="46.20172" lon="3.07524">
        <ele>302</ele>
        <time>2015-11-26T13:26:02Z</time>
      </trkpt>
      <trkpt lat="46.20174" lon="3.07509">
        <ele>300</ele>
        <time>2015-11-26T13:26:12Z</time>
      </trkpt>
      <trkpt lat="46.20152" lon="3.0747">
        <ele>307</ele>
        <time>2015-11-26T13:26:26Z</time>
      </trkpt>
      <trkpt lat="46.20138" lon="3.07436">
        <ele>290</ele>
        <time>2015-11-26T13:26:41Z</time>
      </trkpt>
      <trkpt lat="46.20138" lon="3.07407">
        <ele>287</ele>
        <time>2015-11-26T13:26:52Z</time>
      </trkpt>
      <trkpt lat="46.20135" lon="3.07403">
        <ele>284</ele>
        <time>2015-11-26T13:26:55Z</time>
      </trkpt>
      <trkpt lat="46.20122" lon="3.07385">
        <ele>287</ele>
        <time>2015-11-26T13:27:16Z</time>
      </trkpt>
      <trkpt lat="46.2012" lon="3.07384">
        <ele>286</ele>
        <time>2015-11-26T13:27:17Z</time>
      </trkpt>
      <trkpt lat="46.20111" lon="3.07377">
        <ele>288</ele>
        <time>2015-11-26T13:27:32Z</time>
      </trkpt>
      <trkpt lat="46.20107" lon="3.07374">
        <ele>288</ele>
        <time>2015-11-26T13:27:39Z</time>
      </trkpt>
      <trkpt lat="46.20103" lon="3.07368">
        <ele>290</ele>
        <time>2015-11-26T13:27:51Z</time>
      </trkpt>
      <trkpt lat="46.20104" lon="3.07366">
        <ele>297</ele>
        <time>2015-11-26T13:28:07Z</time>
      </trkpt>
      <trkpt lat="46.20104" lon="3.07367">
        <ele>298</ele>
        <time>2015-11-26T13:28:13Z</time>
      </trkpt>
      <trkpt lat="46.20104" lon="3.07367">
        <ele>298</ele>
        <time>2015-11-26T13:28:16Z</time>
      </trkpt>
      <trkpt lat="46.20104" lon="3.07367">
        <ele>298</ele>
        <time>2015-11-26T13:28:21Z</time>
      </trkpt>
      <trkpt lat="46.20106" lon="3.07366">
        <ele>298</ele>
        <time>2015-11-26T13:28:30Z</time>
      </trkpt>
      <trkpt lat="46.20106" lon="3.07366">
        <ele>298</ele>
        <time>2015-11-26T13:28:33Z</time>
      </trkpt>
      <trkpt lat="46.20106" lon="3.07366">
        <ele>298</ele>
        <time>2015-11-26T13:28:35Z</time>
      </trkpt>
      <trkpt lat="46.20106" lon="3.07365">
        <ele>298</ele>
        <time>2015-11-26T13:28:37Z</time>
      </trkpt>
      <trkpt lat="46.20106" lon="3.07365">
        <ele>298</ele>
        <time>2015-11-26T13:28:40Z</time>
      </trkpt>
      <trkpt lat="46.20106" lon="3.07365">
        <ele>298</ele>
        <time>2015-11-26T13:28:45Z</time>
      </trkpt>
      <trkpt lat="46.20106" lon="3.07365">
        <ele>298</ele>
        <time>2015-11-26T13:28:46Z</time>
      </trkpt>
      <trkpt lat="46.20107" lon="3.07365">
        <ele>298</ele>
        <time>2015-11-26T13:28:49Z</time>
      </trkpt>
      <trkpt lat="46.20107" lon="3.07365">
        <ele>298</ele>
        <time>2015-11-26T13:28:54Z</time>
      </trkpt>
      <trkpt lat="46.20107" lon="3.07365">
        <ele>298</ele>
        <time>2015-11-26T13:28:57Z</time>
      </trkpt>
      <trkpt lat="46.20107" lon="3.07365">
        <ele>298</ele>
        <time>2015-11-26T13:29:00Z</time>
      </trkpt>
      <trkpt lat="46.20107" lon="3.07365">
        <ele>299</ele>
        <time>2015-11-26T13:29:01Z</time>
      </trkpt>
      <trkpt lat="46.20115" lon="3.07329">
        <ele>308</ele>
        <time>2015-11-26T13:29:13Z</time>
      </trkpt>
      <trkpt lat="46.20122" lon="3.07328">
        <ele>317</ele>
        <time>2015-11-26T13:29:33Z</time>
      </trkpt>
      <trkpt lat="46.20121" lon="3.0733">
        <ele>317</ele>
        <time>2015-11-26T13:29:34Z</time>
      </trkpt>
      <trkpt lat="46.20115" lon="3.07345">
        <ele>329</ele>
        <time>2015-11-26T13:29:48Z</time>
      </trkpt>
      <trkpt lat="46.20115" lon="3.07344">
        <ele>329</ele>
        <time>2015-11-26T13:29:56Z</time>
      </trkpt>
      <trkpt lat="46.20116" lon="3.07344">
        <ele>329</ele>
        <time>2015-11-26T13:29:59Z</time>
      </trkpt>
      <trkpt lat="46.20116" lon="3.07344">
        <ele>329</ele>
        <time>2015-11-26T13:30:02Z</time>
      </trkpt>
      <trkpt lat="46.20116" lon="3.07344">
        <ele>329</ele>
        <time>2015-11-26T13:30:05Z</time>
      </trkpt>
      <trkpt lat="46.20116" lon="3.07344">
        <ele>330</ele>
        <time>2015-11-26T13:30:08Z</time>
      </trkpt>
      <trkpt lat="46.20116" lon="3.07344">
        <ele>330</ele>
        <time>2015-11-26T13:30:11Z</time>
      </trkpt>
      <trkpt lat="46.20122" lon="3.07367">
        <ele>348</ele>
        <time>2015-11-26T13:30:22Z</time>
      </trkpt>
      <trkpt lat="46.20125" lon="3.07373">
        <ele>357</ele>
        <time>2015-11-26T13:30:31Z</time>
      </trkpt>
      <trkpt lat="46.20127" lon="3.07378">
        <ele>361</ele>
        <time>2015-11-26T13:30:46Z</time>
      </trkpt>
      <trkpt lat="46.20131" lon="3.0738">
        <ele>368</ele>
        <time>2015-11-26T13:30:56Z</time>
      </trkpt>
      <trkpt lat="46.20132" lon="3.0738">
        <ele>369</ele>
        <time>2015-11-26T13:31:04Z</time>
      </trkpt>
      <trkpt lat="46.20132" lon="3.0738">
        <ele>369</ele>
        <time>2015-11-26T13:31:09Z</time>
      </trkpt>
      <trkpt lat="46.20132" lon="3.0738">
        <ele>369</ele>
        <time>2015-11-26T13:31:12Z</time>
      </trkpt>
      <trkpt lat="46.20132" lon="3.0738">
        <ele>369</ele>
        <time>2015-11-26T13:31:15Z</time>
      </trkpt>
      <trkpt lat="46.20132" lon="3.07381">
        <ele>369</ele>
        <time>2015-11-26T13:31:18Z</time>
      </trkpt>
      <trkpt lat="46.20132" lon="3.07381">
        <ele>369</ele>
        <time>2015-11-26T13:31:21Z</time>
      </trkpt>
      <trkpt lat="46.20132" lon="3.07381">
        <ele>369</ele>
        <time>2015-11-26T13:31:24Z</time>
      </trkpt>
      <trkpt lat="46.20132" lon="3.07381">
        <ele>369</ele>
        <time>2015-11-26T13:31:27Z</time>
      </trkpt>
      <trkpt lat="46.20132" lon="3.07381">
        <ele>369</ele>
        <time>2015-11-26T13:31:30Z</time>
      </trkpt>
      <trkpt lat="46.20133" lon="3.07381">
        <ele>369</ele>
        <time>2015-11-26T13:31:33Z</time>
      </trkpt>
      <trkpt lat="46.20133" lon="3.07381">
        <ele>369</ele>
        <time>2015-11-26T13:31:36Z</time>
      </trkpt>
      <trkpt lat="46.20133" lon="3.07382">
        <ele>369</ele>
        <time>2015-11-26T13:31:39Z</time>
      </trkpt>
      <trkpt lat="46.20133" lon="3.07382">
        <ele>369</ele>
        <time>2015-11-26T13:31:42Z</time>
      </trkpt>
      <trkpt lat="46.20133" lon="3.07381">
        <ele>370</ele>
        <time>2015-11-26T13:31:45Z</time>
      </trkpt>
      <trkpt lat="46.20133" lon="3.07383">
        <ele>372</ele>
        <time>2015-11-26T13:31:48Z</time>
      </trkpt>
      <trkpt lat="46.20135" lon="3.07384">
        <ele>373</ele>
        <time>2015-11-26T13:31:59Z</time>
      </trkpt>
      <trkpt lat="46.20136" lon="3.07377">
        <ele>375</ele>
        <time>2015-11-26T13:32:10Z</time>
      </trkpt>
      <trkpt lat="46.20137" lon="3.0736">
        <ele>373</ele>
        <time>2015-11-26T13:32:25Z</time>
      </trkpt>
      <trkpt lat="46.20136" lon="3.07348">
        <ele>376</ele>
        <time>2015-11-26T13:32:32Z</time>
      </trkpt>
      <trkpt lat="46.20134" lon="3.07331">
        <ele>376</ele>
        <time>2015-11-26T13:32:43Z</time>
      </trkpt>
      <trkpt lat="46.20133" lon="3.07319">
        <ele>375</ele>
        <time>2015-11-26T13:32:54Z</time>
      </trkpt>
      <trkpt lat="46.20125" lon="3.07292">
        <ele>377</ele>
        <time>2015-11-26T13:33:12Z</time>
      </trkpt>
      <trkpt lat="46.20123" lon="3.07286">
        <ele>379</ele>
        <time>2015-11-26T13:33:16Z</time>
      </trkpt>
      <trkpt lat="46.20113" lon="3.07258">
        <ele>384</ele>
        <time>2015-11-26T13:33:33Z</time>
      </trkpt>
      <trkpt lat="46.20112" lon="3.07255">
        <ele>383</ele>
        <time>2015-11-26T13:33:38Z</time>
      </trkpt>
      <trkpt lat="46.20102" lon="3.07233">
        <ele>385</ele>
        <time>2015-11-26T13:33:50Z</time>
      </trkpt>
      <trkpt lat="46.20098" lon="3.07216">
        <ele>386</ele>
        <time>2015-11-26T13:34:00Z</time>
      </trkpt>
      <trkpt lat="46.20096" lon="3.07184">
        <ele>384</ele>
        <time>2015-11-26T13:34:17Z</time>
      </trkpt>
      <trkpt lat="46.20095" lon="3.07175">
        <ele>382</ele>
        <time>2015-11-26T13:34:22Z</time>
      </trkpt>
      <trkpt lat="46.20098" lon="3.07158">
        <ele>385</ele>
        <time>2015-11-26T13:34:34Z</time>
      </trkpt>
      <trkpt lat="46.20108" lon="3.07131">
        <ele>382</ele>
        <time>2015-11-26T13:34:51Z</time>
      </trkpt>
      <trkpt lat="46.20111" lon="3.07119">
        <ele>379</ele>
        <time>2015-11-26T13:34:58Z</time>
      </trkpt>
      <trkpt lat="46.20118" lon="3.07103">
        <ele>374</ele>
        <time>2015-11-26T13:35:10Z</time>
      </trkpt>
      <trkpt lat="46.20124" lon="3.07081">
        <ele>375</ele>
        <time>2015-11-26T13:35:19Z</time>
      </trkpt>
      <trkpt lat="46.2013" lon="3.07068">
        <ele>377</ele>
        <time>2015-11-26T13:35:28Z</time>
      </trkpt>
      <trkpt lat="46.20132" lon="3.07044">
        <ele>379</ele>
        <time>2015-11-26T13:35:41Z</time>
      </trkpt>
      <trkpt lat="46.20138" lon="3.07027">
        <ele>382</ele>
        <time>2015-11-26T13:35:55Z</time>
      </trkpt>
      <trkpt lat="46.20141" lon="3.07018">
        <ele>383</ele>
        <time>2015-11-26T13:36:01Z</time>
      </trkpt>
      <trkpt lat="46.20148" lon="3.07002">
        <ele>380</ele>
        <time>2015-11-26T13:36:12Z</time>
      </trkpt>
      <trkpt lat="46.20159" lon="3.06974">
        <ele>381</ele>
        <time>2015-11-26T13:36:33Z</time>
      </trkpt>
      <trkpt lat="46.2016" lon="3.06972">
        <ele>381</ele>
        <time>2015-11-26T13:36:34Z</time>
      </trkpt>
      <trkpt lat="46.20169" lon="3.06961">
        <ele>376</ele>
        <time>2015-11-26T13:36:45Z</time>
      </trkpt>
      <trkpt lat="46.20173" lon="3.06946">
        <ele>375</ele>
        <time>2015-11-26T13:36:56Z</time>
      </trkpt>
      <trkpt lat="46.20179" lon="3.06926">
        <ele>376</ele>
        <time>2015-11-26T13:37:07Z</time>
      </trkpt>
      <trkpt lat="46.20186" lon="3.06912">
        <ele>374</ele>
        <time>2015-11-26T13:37:18Z</time>
      </trkpt>
      <trkpt lat="46.20194" lon="3.06891">
        <ele>375</ele>
        <time>2015-11-26T13:37:29Z</time>
      </trkpt>
      <trkpt lat="46.20204" lon="3.0687">
        <ele>374</ele>
        <time>2015-11-26T13:37:45Z</time>
      </trkpt>
      <trkpt lat="46.20209" lon="3.06861">
        <ele>377</ele>
        <time>2015-11-26T13:37:51Z</time>
      </trkpt>
      <trkpt lat="46.2022" lon="3.06842">
        <ele>376</ele>
        <time>2015-11-26T13:38:05Z</time>
      </trkpt>
      <trkpt lat="46.20223" lon="3.06827">
        <ele>379</ele>
        <time>2015-11-26T13:38:14Z</time>
      </trkpt>
      <trkpt lat="46.20227" lon="3.06812">
        <ele>384</ele>
        <time>2015-11-26T13:38:27Z</time>
      </trkpt>
      <trkpt lat="46.20234" lon="3.06801">
        <ele>381</ele>
        <time>2015-11-26T13:38:35Z</time>
      </trkpt>
      <trkpt lat="46.20241" lon="3.06785">
        <ele>379</ele>
        <time>2015-11-26T13:38:46Z</time>
      </trkpt>
      <trkpt lat="46.20249" lon="3.06777">
        <ele>375</ele>
        <time>2015-11-26T13:38:57Z</time>
      </trkpt>
      <trkpt lat="46.2026" lon="3.06754">
        <ele>378</ele>
        <time>2015-11-26T13:39:14Z</time>
      </trkpt>
      <trkpt lat="46.20264" lon="3.06744">
        <ele>376</ele>
        <time>2015-11-26T13:39:19Z</time>
      </trkpt>
      <trkpt lat="46.20269" lon="3.06727">
        <ele>384</ele>
        <time>2015-11-26T13:39:33Z</time>
      </trkpt>
      <trkpt lat="46.20269" lon="3.06719">
        <ele>387</ele>
        <time>2015-11-26T13:39:41Z</time>
      </trkpt>
      <trkpt lat="46.20266" lon="3.06709">
        <ele>391</ele>
        <time>2015-11-26T13:40:00Z</time>
      </trkpt>
      <trkpt lat="46.20266" lon="3.06709">
        <ele>392</ele>
        <time>2015-11-26T13:40:06Z</time>
      </trkpt>
      <trkpt lat="46.20267" lon="3.06709">
        <ele>392</ele>
        <time>2015-11-26T13:40:09Z</time>
      </trkpt>
      <trkpt lat="46.20267" lon="3.06709">
        <ele>392</ele>
        <time>2015-11-26T13:40:15Z</time>
      </trkpt>
      <trkpt lat="46.20267" lon="3.06709">
        <ele>392</ele>
        <time>2015-11-26T13:40:19Z</time>
      </trkpt>
      <trkpt lat="46.20267" lon="3.06709">
        <ele>392</ele>
        <time>2015-11-26T13:40:22Z</time>
      </trkpt>
      <trkpt lat="46.20267" lon="3.06709">
        <ele>392</ele>
        <time>2015-11-26T13:40:24Z</time>
      </trkpt>
      <trkpt lat="46.20267" lon="3.06709">
        <ele>392</ele>
        <time>2015-11-26T13:40:27Z</time>
      </trkpt>
      <trkpt lat="46.20267" lon="3.06709">
        <ele>392</ele>
        <time>2015-11-26T13:40:30Z</time>
      </trkpt>
      <trkpt lat="46.20273" lon="3.06712">
        <ele>392</ele>
        <time>2015-11-26T13:40:33Z</time>
      </trkpt>
      <trkpt lat="46.20298" lon="3.06716">
        <ele>397</ele>
        <time>2015-11-26T13:40:48Z</time>
      </trkpt>
      <trkpt lat="46.20317" lon="3.0672">
        <ele>397</ele>
        <time>2015-11-26T13:41:01Z</time>
      </trkpt>
      <trkpt lat="46.20329" lon="3.06723">
        <ele>397</ele>
        <time>2015-11-26T13:41:11Z</time>
      </trkpt>
      <trkpt lat="46.20353" lon="3.06725">
        <ele>403</ele>
        <time>2015-11-26T13:41:26Z</time>
      </trkpt>
      <trkpt lat="46.20355" lon="3.06725">
        <ele>402</ele>
        <time>2015-11-26T13:41:28Z</time>
      </trkpt>
      <trkpt lat="46.20364" lon="3.06726">
        <ele>387</ele>
        <time>2015-11-26T13:41:40Z</time>
      </trkpt>
      <trkpt lat="46.20375" lon="3.06732">
        <ele>387</ele>
        <time>2015-11-26T13:41:50Z</time>
      </trkpt>
      <trkpt lat="46.20394" lon="3.06737">
        <ele>385</ele>
        <time>2015-11-26T13:42:07Z</time>
      </trkpt>
      <trkpt lat="46.204" lon="3.06744">
        <ele>379</ele>
        <time>2015-11-26T13:42:12Z</time>
      </trkpt>
      <trkpt lat="46.20415" lon="3.06746">
        <ele>378</ele>
        <time>2015-11-26T13:42:23Z</time>
      </trkpt>
      <trkpt lat="46.20435" lon="3.0675">
        <ele>382</ele>
        <time>2015-11-26T13:42:41Z</time>
      </trkpt>
      <trkpt lat="46.20456" lon="3.06744">
        <ele>389</ele>
        <time>2015-11-26T13:42:55Z</time>
      </trkpt>
      <trkpt lat="46.20463" lon="3.06749">
        <ele>389</ele>
        <time>2015-11-26T13:43:03Z</time>
      </trkpt>
      <trkpt lat="46.20468" lon="3.06752">
        <ele>387</ele>
        <time>2015-11-26T13:43:07Z</time>
      </trkpt>
      <trkpt lat="46.20482" lon="3.06756">
        <ele>385</ele>
        <time>2015-11-26T13:43:18Z</time>
      </trkpt>
      <trkpt lat="46.20493" lon="3.06752">
        <ele>383</ele>
        <time>2015-11-26T13:43:29Z</time>
      </trkpt>
      <trkpt lat="46.20503" lon="3.06751">
        <ele>383</ele>
        <time>2015-11-26T13:43:40Z</time>
      </trkpt>
      <trkpt lat="46.20526" lon="3.06738">
        <ele>383</ele>
        <time>2015-11-26T13:43:59Z</time>
      </trkpt>
      <trkpt lat="46.20532" lon="3.06735">
        <ele>384</ele>
        <time>2015-11-26T13:44:02Z</time>
      </trkpt>
      <trkpt lat="46.20553" lon="3.06735">
        <ele>381</ele>
        <time>2015-11-26T13:44:22Z</time>
      </trkpt>
      <trkpt lat="46.20555" lon="3.06733">
        <ele>384</ele>
        <time>2015-11-26T13:44:24Z</time>
      </trkpt>
      <trkpt lat="46.20565" lon="3.06727">
        <ele>383</ele>
        <time>2015-11-26T13:44:35Z</time>
      </trkpt>
      <trkpt lat="46.20577" lon="3.0672">
        <ele>385</ele>
        <time>2015-11-26T13:44:46Z</time>
      </trkpt>
      <trkpt lat="46.20589" lon="3.06715">
        <ele>383</ele>
        <time>2015-11-26T13:44:57Z</time>
      </trkpt>
      <trkpt lat="46.20607" lon="3.06694">
        <ele>392</ele>
        <time>2015-11-26T13:45:15Z</time>
      </trkpt>
      <trkpt lat="46.20611" lon="3.06694">
        <ele>393</ele>
        <time>2015-11-26T13:45:19Z</time>
      </trkpt>
      <trkpt lat="46.20618" lon="3.06689">
        <ele>392</ele>
        <time>2015-11-26T13:45:31Z</time>
      </trkpt>
      <trkpt lat="46.20629" lon="3.06674">
        <ele>394</ele>
        <time>2015-11-26T13:45:44Z</time>
      </trkpt>
      <trkpt lat="46.20641" lon="3.06669">
        <ele>395</ele>
        <time>2015-11-26T13:45:52Z</time>
      </trkpt>
      <trkpt lat="46.20659" lon="3.06648">
        <ele>397</ele>
        <time>2015-11-26T13:46:09Z</time>
      </trkpt>
      <trkpt lat="46.20664" lon="3.06639">
        <ele>398</ele>
        <time>2015-11-26T13:46:14Z</time>
      </trkpt>
      <trkpt lat="46.20679" lon="3.06625">
        <ele>393</ele>
        <time>2015-11-26T13:46:31Z</time>
      </trkpt>
      <trkpt lat="46.20682" lon="3.06617">
        <ele>397</ele>
        <time>2015-11-26T13:46:36Z</time>
      </trkpt>
      <trkpt lat="46.20691" lon="3.06597">
        <ele>401</ele>
        <time>2015-11-26T13:46:50Z</time>
      </trkpt>
      <trkpt lat="46.20695" lon="3.06587">
        <ele>399</ele>
        <time>2015-11-26T13:46:58Z</time>
      </trkpt>
      <trkpt lat="46.207" lon="3.06569">
        <ele>399</ele>
        <time>2015-11-26T13:47:09Z</time>
      </trkpt>
      <trkpt lat="46.20706" lon="3.0655">
        <ele>397</ele>
        <time>2015-11-26T13:47:24Z</time>
      </trkpt>
      <trkpt lat="46.20707" lon="3.06539">
        <ele>396</ele>
        <time>2015-11-26T13:47:33Z</time>
      </trkpt>
      <trkpt lat="46.20712" lon="3.06521">
        <ele>396</ele>
        <time>2015-11-26T13:47:47Z</time>
      </trkpt>
      <trkpt lat="46.20719" lon="3.06497">
        <ele>401</ele>
        <time>2015-11-26T13:48:01Z</time>
      </trkpt>
      <trkpt lat="46.20719" lon="3.0649">
        <ele>403</ele>
        <time>2015-11-26T13:48:04Z</time>
      </trkpt>
      <trkpt lat="46.20715" lon="3.06467">
        <ele>406</ele>
        <time>2015-11-26T13:48:21Z</time>
      </trkpt>
      <trkpt lat="46.20719" lon="3.06462">
        <ele>407</ele>
        <time>2015-11-26T13:48:27Z</time>
      </trkpt>
      <trkpt lat="46.20716" lon="3.06435">
        <ele>415</ele>
        <time>2015-11-26T13:48:47Z</time>
      </trkpt>
      <trkpt lat="46.20716" lon="3.06418">
        <ele>422</ele>
        <time>2015-11-26T13:48:57Z</time>
      </trkpt>
      <trkpt lat="46.20715" lon="3.06415">
        <ele>422</ele>
        <time>2015-11-26T13:48:59Z</time>
      </trkpt>
      <trkpt lat="46.20722" lon="3.06393">
        <ele>421</ele>
        <time>2015-11-26T13:49:19Z</time>
      </trkpt>
      <trkpt lat="46.20722" lon="3.06388">
        <ele>423</ele>
        <time>2015-11-26T13:49:21Z</time>
      </trkpt>
      <trkpt lat="46.20722" lon="3.06373">
        <ele>423</ele>
        <time>2015-11-26T13:49:32Z</time>
      </trkpt>
      <trkpt lat="46.20718" lon="3.06357">
        <ele>424</ele>
        <time>2015-11-26T13:49:43Z</time>
      </trkpt>
      <trkpt lat="46.20721" lon="3.06341">
        <ele>425</ele>
        <time>2015-11-26T13:49:54Z</time>
      </trkpt>
      <trkpt lat="46.20734" lon="3.06317">
        <ele>423</ele>
        <time>2015-11-26T13:50:15Z</time>
      </trkpt>
      <trkpt lat="46.20739" lon="3.063">
        <ele>426</ele>
        <time>2015-11-26T13:50:26Z</time>
      </trkpt>
      <trkpt lat="46.20739" lon="3.06299">
        <ele>427</ele>
        <time>2015-11-26T13:50:27Z</time>
      </trkpt>
      <trkpt lat="46.20744" lon="3.0627">
        <ele>425</ele>
        <time>2015-11-26T13:50:44Z</time>
      </trkpt>
      <trkpt lat="46.20747" lon="3.06262">
        <ele>424</ele>
        <time>2015-11-26T13:50:49Z</time>
      </trkpt>
      <trkpt lat="46.20752" lon="3.06245">
        <ele>423</ele>
        <time>2015-11-26T13:51:00Z</time>
      </trkpt>
      <trkpt lat="46.20755" lon="3.06224">
        <ele>427</ele>
        <time>2015-11-26T13:51:13Z</time>
      </trkpt>
      <trkpt lat="46.20753" lon="3.06206">
        <ele>429</ele>
        <time>2015-11-26T13:51:28Z</time>
      </trkpt>
      <trkpt lat="46.20754" lon="3.06198">
        <ele>429</ele>
        <time>2015-11-26T13:51:33Z</time>
      </trkpt>
      <trkpt lat="46.20747" lon="3.06184">
        <ele>429</ele>
        <time>2015-11-26T13:51:44Z</time>
      </trkpt>
      <trkpt lat="46.2074" lon="3.06169">
        <ele>431</ele>
        <time>2015-11-26T13:51:55Z</time>
      </trkpt>
      <trkpt lat="46.20727" lon="3.06159">
        <ele>430</ele>
        <time>2015-11-26T13:52:08Z</time>
      </trkpt>
      <trkpt lat="46.20718" lon="3.06149">
        <ele>433</ele>
        <time>2015-11-26T13:52:17Z</time>
      </trkpt>
      <trkpt lat="46.20712" lon="3.06133">
        <ele>433</ele>
        <time>2015-11-26T13:52:28Z</time>
      </trkpt>
      <trkpt lat="46.20704" lon="3.06123">
        <ele>434</ele>
        <time>2015-11-26T13:52:39Z</time>
      </trkpt>
      <trkpt lat="46.20702" lon="3.06122">
        <ele>434</ele>
        <time>2015-11-26T13:52:56Z</time>
      </trkpt>
      <trkpt lat="46.20702" lon="3.06121">
        <ele>433</ele>
        <time>2015-11-26T13:52:59Z</time>
      </trkpt>
      <trkpt lat="46.20717" lon="3.06116">
        <ele>430</ele>
        <time>2015-11-26T13:53:10Z</time>
      </trkpt>
      <trkpt lat="46.2072" lon="3.06113">
        <ele>429</ele>
        <time>2015-11-26T13:53:13Z</time>
      </trkpt>
      <trkpt lat="46.20733" lon="3.06103">
        <ele>429</ele>
        <time>2015-11-26T13:53:24Z</time>
      </trkpt>
      <trkpt lat="46.20746" lon="3.06103">
        <ele>430</ele>
        <time>2015-11-26T13:53:35Z</time>
      </trkpt>
      <trkpt lat="46.20759" lon="3.06098">
        <ele>430</ele>
        <time>2015-11-26T13:53:46Z</time>
      </trkpt>
      <trkpt lat="46.2077" lon="3.06092">
        <ele>427</ele>
        <time>2015-11-26T13:53:57Z</time>
      </trkpt>
      <trkpt lat="46.20782" lon="3.0609">
        <ele>432</ele>
        <time>2015-11-26T13:54:08Z</time>
      </trkpt>
      <trkpt lat="46.20795" lon="3.06084">
        <ele>432</ele>
        <time>2015-11-26T13:54:19Z</time>
      </trkpt>
      <trkpt lat="46.20806" lon="3.0608">
        <ele>429</ele>
        <time>2015-11-26T13:54:30Z</time>
      </trkpt>
      <trkpt lat="46.20821" lon="3.0608">
        <ele>435</ele>
        <time>2015-11-26T13:54:41Z</time>
      </trkpt>
      <trkpt lat="46.20832" lon="3.06073">
        <ele>434</ele>
        <time>2015-11-26T13:54:52Z</time>
      </trkpt>
      <trkpt lat="46.20842" lon="3.06063">
        <ele>436</ele>
        <time>2015-11-26T13:55:05Z</time>
      </trkpt>
      <trkpt lat="46.20851" lon="3.06058">
        <ele>437</ele>
        <time>2015-11-26T13:55:14Z</time>
      </trkpt>
      <trkpt lat="46.20862" lon="3.0606">
        <ele>431</ele>
        <time>2015-11-26T13:55:27Z</time>
      </trkpt>
      <trkpt lat="46.20881" lon="3.06063">
        <ele>439</ele>
        <time>2015-11-26T13:55:39Z</time>
      </trkpt>
      <trkpt lat="46.20889" lon="3.06075">
        <ele>438</ele>
        <time>2015-11-26T13:55:48Z</time>
      </trkpt>
      <trkpt lat="46.209" lon="3.06088">
        <ele>443</ele>
        <time>2015-11-26T13:55:58Z</time>
      </trkpt>
      <trkpt lat="46.20905" lon="3.06124">
        <ele>443</ele>
        <time>2015-11-26T13:56:18Z</time>
      </trkpt>
      <trkpt lat="46.20907" lon="3.06131">
        <ele>442</ele>
        <time>2015-11-26T13:56:23Z</time>
      </trkpt>
      <trkpt lat="46.20913" lon="3.06142">
        <ele>441</ele>
        <time>2015-11-26T13:56:31Z</time>
      </trkpt>
      <trkpt lat="46.20913" lon="3.06173">
        <ele>437</ele>
        <time>2015-11-26T13:56:50Z</time>
      </trkpt>
      <trkpt lat="46.20912" lon="3.06186">
        <ele>438</ele>
        <time>2015-11-26T13:56:59Z</time>
      </trkpt>
      <trkpt lat="46.20913" lon="3.06194">
        <ele>438</ele>
        <time>2015-11-26T13:57:04Z</time>
      </trkpt>
      <trkpt lat="46.20916" lon="3.06224">
        <ele>432</ele>
        <time>2015-11-26T13:57:22Z</time>
      </trkpt>
      <trkpt lat="46.20917" lon="3.0623">
        <ele>431</ele>
        <time>2015-11-26T13:57:26Z</time>
      </trkpt>
      <trkpt lat="46.20919" lon="3.0625">
        <ele>431</ele>
        <time>2015-11-26T13:57:38Z</time>
      </trkpt>
      <trkpt lat="46.20917" lon="3.06271">
        <ele>431</ele>
        <time>2015-11-26T13:57:48Z</time>
      </trkpt>
      <trkpt lat="46.20917" lon="3.06287">
        <ele>425</ele>
        <time>2015-11-26T13:57:59Z</time>
      </trkpt>
      <trkpt lat="46.20925" lon="3.06317">
        <ele>430</ele>
        <time>2015-11-26T13:58:19Z</time>
      </trkpt>
      <trkpt lat="46.20927" lon="3.06323">
        <ele>431</ele>
        <time>2015-11-26T13:58:22Z</time>
      </trkpt>
      <trkpt lat="46.2093" lon="3.06344">
        <ele>433</ele>
        <time>2015-11-26T13:58:33Z</time>
      </trkpt>
      <trkpt lat="46.20933" lon="3.06359">
        <ele>436</ele>
        <time>2015-11-26T13:58:43Z</time>
      </trkpt>
      <trkpt lat="46.20937" lon="3.06389">
        <ele>433</ele>
        <time>2015-11-26T13:59:01Z</time>
      </trkpt>
      <trkpt lat="46.20937" lon="3.064">
        <ele>433</ele>
        <time>2015-11-26T13:59:06Z</time>
      </trkpt>
      <trkpt lat="46.20935" lon="3.06413">
        <ele>431</ele>
        <time>2015-11-26T13:59:19Z</time>
      </trkpt>
      <trkpt lat="46.20933" lon="3.06416">
        <ele>426</ele>
        <time>2015-11-26T13:59:30Z</time>
      </trkpt>
      <trkpt lat="46.2093" lon="3.06442">
        <ele>424</ele>
        <time>2015-11-26T13:59:47Z</time>
      </trkpt>
      <trkpt lat="46.20933" lon="3.06444">
        <ele>426</ele>
        <time>2015-11-26T13:59:49Z</time>
      </trkpt>
      <trkpt lat="46.20932" lon="3.06464">
        <ele>424</ele>
        <time>2015-11-26T14:00:00Z</time>
      </trkpt>
      <trkpt lat="46.20931" lon="3.06484">
        <ele>423</ele>
        <time>2015-11-26T14:00:13Z</time>
      </trkpt>
      <trkpt lat="46.2093" lon="3.06502">
        <ele>420</ele>
        <time>2015-11-26T14:00:23Z</time>
      </trkpt>
      <trkpt lat="46.20936" lon="3.06531">
        <ele>417</ele>
        <time>2015-11-26T14:00:41Z</time>
      </trkpt>
      <trkpt lat="46.20946" lon="3.06543">
        <ele>419</ele>
        <time>2015-11-26T14:00:50Z</time>
      </trkpt>
      <trkpt lat="46.2095" lon="3.06546">
        <ele>420</ele>
        <time>2015-11-26T14:00:55Z</time>
      </trkpt>
      <trkpt lat="46.20961" lon="3.06553">
        <ele>421</ele>
        <time>2015-11-26T14:01:09Z</time>
      </trkpt>
      <trkpt lat="46.20978" lon="3.06569">
        <ele>422</ele>
        <time>2015-11-26T14:01:24Z</time>
      </trkpt>
      <trkpt lat="46.20979" lon="3.06577">
        <ele>422</ele>
        <time>2015-11-26T14:01:28Z</time>
      </trkpt>
      <trkpt lat="46.20986" lon="3.06601">
        <ele>420</ele>
        <time>2015-11-26T14:01:44Z</time>
      </trkpt>
      <trkpt lat="46.20985" lon="3.06603">
        <ele>421</ele>
        <time>2015-11-26T14:01:50Z</time>
      </trkpt>
      <trkpt lat="46.20991" lon="3.06617">
        <ele>422</ele>
        <time>2015-11-26T14:02:01Z</time>
      </trkpt>
      <trkpt lat="46.20995" lon="3.06638">
        <ele>422</ele>
        <time>2015-11-26T14:02:15Z</time>
      </trkpt>
      <trkpt lat="46.21005" lon="3.06671">
        <ele>423</ele>
        <time>2015-11-26T14:02:33Z</time>
      </trkpt>
      <trkpt lat="46.21006" lon="3.06673">
        <ele>422</ele>
        <time>2015-11-26T14:02:34Z</time>
      </trkpt>
      <trkpt lat="46.21008" lon="3.06692">
        <ele>417</ele>
        <time>2015-11-26T14:02:45Z</time>
      </trkpt>
      <trkpt lat="46.21019" lon="3.06707">
        <ele>423</ele>
        <time>2015-11-26T14:02:57Z</time>
      </trkpt>
      <trkpt lat="46.21022" lon="3.06724">
        <ele>419</ele>
        <time>2015-11-26T14:03:10Z</time>
      </trkpt>
      <trkpt lat="46.21027" lon="3.06744">
        <ele>421</ele>
        <time>2015-11-26T14:03:19Z</time>
      </trkpt>
      <trkpt lat="46.2103" lon="3.06758">
        <ele>419</ele>
        <time>2015-11-26T14:03:30Z</time>
      </trkpt>
      <trkpt lat="46.21031" lon="3.06773">
        <ele>418</ele>
        <time>2015-11-26T14:03:46Z</time>
      </trkpt>
      <trkpt lat="46.21028" lon="3.06785">
        <ele>415</ele>
        <time>2015-11-26T14:03:53Z</time>
      </trkpt>
      <trkpt lat="46.21025" lon="3.06814">
        <ele>413</ele>
        <time>2015-11-26T14:04:06Z</time>
      </trkpt>
      <trkpt lat="46.21021" lon="3.06842">
        <ele>413</ele>
        <time>2015-11-26T14:04:22Z</time>
      </trkpt>
      <trkpt lat="46.2102" lon="3.06843">
        <ele>413</ele>
        <time>2015-11-26T14:04:24Z</time>
      </trkpt>
      <trkpt lat="46.21016" lon="3.06871">
        <ele>409</ele>
        <time>2015-11-26T14:04:43Z</time>
      </trkpt>
      <trkpt lat="46.21015" lon="3.06882">
        <ele>410</ele>
        <time>2015-11-26T14:04:47Z</time>
      </trkpt>
      <trkpt lat="46.21015" lon="3.06907">
        <ele>410</ele>
        <time>2015-11-26T14:05:01Z</time>
      </trkpt>
      <trkpt lat="46.21016" lon="3.06938">
        <ele>410</ele>
        <time>2015-11-26T14:05:16Z</time>
      </trkpt>
      <trkpt lat="46.21014" lon="3.0694">
        <ele>408</ele>
        <time>2015-11-26T14:05:19Z</time>
      </trkpt>
      <trkpt lat="46.21011" lon="3.06958">
        <ele>406</ele>
        <time>2015-11-26T14:05:30Z</time>
      </trkpt>
      <trkpt lat="46.21008" lon="3.06977">
        <ele>402</ele>
        <time>2015-11-26T14:05:41Z</time>
      </trkpt>
      <trkpt lat="46.21012" lon="3.06997">
        <ele>404</ele>
        <time>2015-11-26T14:05:53Z</time>
      </trkpt>
      <trkpt lat="46.21008" lon="3.07018">
        <ele>400</ele>
        <time>2015-11-26T14:06:08Z</time>
      </trkpt>
      <trkpt lat="46.2101" lon="3.07025">
        <ele>398</ele>
        <time>2015-11-26T14:06:15Z</time>
      </trkpt>
      <trkpt lat="46.21024" lon="3.07022">
        <ele>397</ele>
        <time>2015-11-26T14:06:26Z</time>
      </trkpt>
      <trkpt lat="46.2104" lon="3.07017">
        <ele>394</ele>
        <time>2015-11-26T14:06:42Z</time>
      </trkpt>
      <trkpt lat="46.21039" lon="3.07017">
        <ele>395</ele>
        <time>2015-11-26T14:06:47Z</time>
      </trkpt>
      <trkpt lat="46.21039" lon="3.07017">
        <ele>395</ele>
        <time>2015-11-26T14:06:51Z</time>
      </trkpt>
      <trkpt lat="46.21039" lon="3.07017">
        <ele>395</ele>
        <time>2015-11-26T14:06:53Z</time>
      </trkpt>
      <trkpt lat="46.21042" lon="3.07017">
        <ele>397</ele>
        <time>2015-11-26T14:06:56Z</time>
      </trkpt>
      <trkpt lat="46.21059" lon="3.07017">
        <ele>398</ele>
        <time>2015-11-26T14:07:07Z</time>
      </trkpt>
      <trkpt lat="46.21076" lon="3.07013">
        <ele>396</ele>
        <time>2015-11-26T14:07:21Z</time>
      </trkpt>
      <trkpt lat="46.21098" lon="3.07008">
        <ele>396</ele>
        <time>2015-11-26T14:07:39Z</time>
      </trkpt>
      <trkpt lat="46.21101" lon="3.07007">
        <ele>396</ele>
        <time>2015-11-26T14:07:41Z</time>
      </trkpt>
      <trkpt lat="46.21118" lon="3.07002">
        <ele>394</ele>
        <time>2015-11-26T14:07:57Z</time>
      </trkpt>
      <trkpt lat="46.21132" lon="3.07005">
        <ele>390</ele>
        <time>2015-11-26T14:08:11Z</time>
      </trkpt>
      <trkpt lat="46.21133" lon="3.07005">
        <ele>392</ele>
        <time>2015-11-26T14:08:13Z</time>
      </trkpt>
      <trkpt lat="46.21149" lon="3.0701">
        <ele>391</ele>
        <time>2015-11-26T14:08:25Z</time>
      </trkpt>
      <trkpt lat="46.21165" lon="3.07012">
        <ele>393</ele>
        <time>2015-11-26T14:08:36Z</time>
      </trkpt>
      <trkpt lat="46.21176" lon="3.07016">
        <ele>394</ele>
        <time>2015-11-26T14:08:46Z</time>
      </trkpt>
      <trkpt lat="46.21197" lon="3.07015">
        <ele>398</ele>
        <time>2015-11-26T14:09:02Z</time>
      </trkpt>
      <trkpt lat="46.21206" lon="3.07018">
        <ele>400</ele>
        <time>2015-11-26T14:09:08Z</time>
      </trkpt>
      <trkpt lat="46.21225" lon="3.07022">
        <ele>401</ele>
        <time>2015-11-26T14:09:25Z</time>
      </trkpt>
      <trkpt lat="46.2123" lon="3.07025">
        <ele>398</ele>
        <time>2015-11-26T14:09:31Z</time>
      </trkpt>
      <trkpt lat="46.21245" lon="3.07028">
        <ele>395</ele>
        <time>2015-11-26T14:09:42Z</time>
      </trkpt>
      <trkpt lat="46.21273" lon="3.07021">
        <ele>398</ele>
        <time>2015-11-26T14:10:02Z</time>
      </trkpt>
      <trkpt lat="46.21274" lon="3.0702">
        <ele>399</ele>
        <time>2015-11-26T14:10:03Z</time>
      </trkpt>
      <trkpt lat="46.21286" lon="3.07017">
        <ele>397</ele>
        <time>2015-11-26T14:10:16Z</time>
      </trkpt>
      <trkpt lat="46.21302" lon="3.0701">
        <ele>401</ele>
        <time>2015-11-26T14:10:29Z</time>
      </trkpt>
      <trkpt lat="46.21317" lon="3.07005">
        <ele>401</ele>
        <time>2015-11-26T14:10:42Z</time>
      </trkpt>
      <trkpt lat="46.21324" lon="3.07006">
        <ele>404</ele>
        <time>2015-11-26T14:10:47Z</time>
      </trkpt>
      <trkpt lat="46.21346" lon="3.0699">
        <ele>399</ele>
        <time>2015-11-26T14:11:08Z</time>
      </trkpt>
      <trkpt lat="46.21347" lon="3.0699">
        <ele>398</ele>
        <time>2015-11-26T14:11:10Z</time>
      </trkpt>
      <trkpt lat="46.21356" lon="3.06985">
        <ele>396</ele>
        <time>2015-11-26T14:11:20Z</time>
      </trkpt>
      <trkpt lat="46.21364" lon="3.06984">
        <ele>394</ele>
        <time>2015-11-26T14:11:32Z</time>
      </trkpt>
      <trkpt lat="46.21381" lon="3.06974">
        <ele>393</ele>
        <time>2015-11-26T14:11:46Z</time>
      </trkpt>
      <trkpt lat="46.21398" lon="3.06951">
        <ele>401</ele>
        <time>2015-11-26T14:11:59Z</time>
      </trkpt>
      <trkpt lat="46.21402" lon="3.06942">
        <ele>401</ele>
        <time>2015-11-26T14:12:06Z</time>
      </trkpt>
      <trkpt lat="46.21408" lon="3.06929">
        <ele>401</ele>
        <time>2015-11-26T14:12:15Z</time>
      </trkpt>
      <trkpt lat="46.2142" lon="3.06911">
        <ele>402</ele>
        <time>2015-11-26T14:12:30Z</time>
      </trkpt>
      <trkpt lat="46.21421" lon="3.0691">
        <ele>398</ele>
        <time>2015-11-26T14:12:37Z</time>
      </trkpt>
      <trkpt lat="46.2143" lon="3.06895">
        <ele>395</ele>
        <time>2015-11-26T14:12:48Z</time>
      </trkpt>
      <trkpt lat="46.21443" lon="3.06881">
        <ele>394</ele>
        <time>2015-11-26T14:13:00Z</time>
      </trkpt>
      <trkpt lat="46.21452" lon="3.06874">
        <ele>394</ele>
        <time>2015-11-26T14:13:10Z</time>
      </trkpt>
      <trkpt lat="46.21469" lon="3.0686">
        <ele>392</ele>
        <time>2015-11-26T14:13:27Z</time>
      </trkpt>
      <trkpt lat="46.21476" lon="3.06854">
        <ele>394</ele>
        <time>2015-11-26T14:13:34Z</time>
      </trkpt>
      <trkpt lat="46.21487" lon="3.0684">
        <ele>395</ele>
        <time>2015-11-26T14:13:43Z</time>
      </trkpt>
      <trkpt lat="46.21507" lon="3.06832">
        <ele>397</ele>
        <time>2015-11-26T14:14:00Z</time>
      </trkpt>
      <trkpt lat="46.21511" lon="3.06827">
        <ele>395</ele>
        <time>2015-11-26T14:14:06Z</time>
      </trkpt>
      <trkpt lat="46.2153" lon="3.06819">
        <ele>394</ele>
        <time>2015-11-26T14:14:22Z</time>
      </trkpt>
      <trkpt lat="46.21537" lon="3.06819">
        <ele>394</ele>
        <time>2015-11-26T14:14:28Z</time>
      </trkpt>
      <trkpt lat="46.21558" lon="3.0681">
        <ele>398</ele>
        <time>2015-11-26T14:14:45Z</time>
      </trkpt>
      <trkpt lat="46.21562" lon="3.06807">
        <ele>398</ele>
        <time>2015-11-26T14:14:49Z</time>
      </trkpt>
      <trkpt lat="46.21576" lon="3.06806">
        <ele>399</ele>
        <time>2015-11-26T14:15:00Z</time>
      </trkpt>
      <trkpt lat="46.21589" lon="3.06812">
        <ele>398</ele>
        <time>2015-11-26T14:15:11Z</time>
      </trkpt>
      <trkpt lat="46.21601" lon="3.06804">
        <ele>401</ele>
        <time>2015-11-26T14:15:22Z</time>
      </trkpt>
      <trkpt lat="46.21621" lon="3.06803">
        <ele>402</ele>
        <time>2015-11-26T14:15:37Z</time>
      </trkpt>
      <trkpt lat="46.21627" lon="3.06801">
        <ele>398</ele>
        <time>2015-11-26T14:15:44Z</time>
      </trkpt>
      <trkpt lat="46.21647" lon="3.06798">
        <ele>393</ele>
        <time>2015-11-26T14:16:04Z</time>
      </trkpt>
      <trkpt lat="46.21659" lon="3.06799">
        <ele>397</ele>
        <time>2015-11-26T14:16:14Z</time>
      </trkpt>
      <trkpt lat="46.21664" lon="3.06803">
        <ele>398</ele>
        <time>2015-11-26T14:16:19Z</time>
      </trkpt>
      <trkpt lat="46.21678" lon="3.06809">
        <ele>398</ele>
        <time>2015-11-26T14:16:32Z</time>
      </trkpt>
      <trkpt lat="46.21684" lon="3.06821">
        <ele>400</ele>
        <time>2015-11-26T14:16:41Z</time>
      </trkpt>
      <trkpt lat="46.217" lon="3.06837">
        <ele>396</ele>
        <time>2015-11-26T14:16:57Z</time>
      </trkpt>
      <trkpt lat="46.21705" lon="3.06842">
        <ele>396</ele>
        <time>2015-11-26T14:17:01Z</time>
      </trkpt>
      <trkpt lat="46.21716" lon="3.06856">
        <ele>394</ele>
        <time>2015-11-26T14:17:15Z</time>
      </trkpt>
      <trkpt lat="46.2173" lon="3.06874">
        <ele>394</ele>
        <time>2015-11-26T14:17:29Z</time>
      </trkpt>
      <trkpt lat="46.21734" lon="3.0688">
        <ele>392</ele>
        <time>2015-11-26T14:17:34Z</time>
      </trkpt>
      <trkpt lat="46.21737" lon="3.06898">
        <ele>390</ele>
        <time>2015-11-26T14:17:47Z</time>
      </trkpt>
      <trkpt lat="46.21744" lon="3.06911">
        <ele>389</ele>
        <time>2015-11-26T14:17:56Z</time>
      </trkpt>
      <trkpt lat="46.21757" lon="3.06942">
        <ele>387</ele>
        <time>2015-11-26T14:18:14Z</time>
      </trkpt>
      <trkpt lat="46.21761" lon="3.06957">
        <ele>386</ele>
        <time>2015-11-26T14:18:22Z</time>
      </trkpt>
      <trkpt lat="46.21761" lon="3.06973">
        <ele>383</ele>
        <time>2015-11-26T14:18:31Z</time>
      </trkpt>
      <trkpt lat="46.21763" lon="3.06987">
        <ele>381</ele>
        <time>2015-11-26T14:18:40Z</time>
      </trkpt>
      <trkpt lat="46.21771" lon="3.07018">
        <ele>382</ele>
        <time>2015-11-26T14:18:58Z</time>
      </trkpt>
      <trkpt lat="46.21772" lon="3.07024">
        <ele>382</ele>
        <time>2015-11-26T14:19:02Z</time>
      </trkpt>
      <trkpt lat="46.21776" lon="3.07042">
        <ele>381</ele>
        <time>2015-11-26T14:19:13Z</time>
      </trkpt>
      <trkpt lat="46.2178" lon="3.0706">
        <ele>382</ele>
        <time>2015-11-26T14:19:24Z</time>
      </trkpt>
      <trkpt lat="46.21778" lon="3.07077">
        <ele>381</ele>
        <time>2015-11-26T14:19:35Z</time>
      </trkpt>
      <trkpt lat="46.21776" lon="3.07089">
        <ele>380</ele>
        <time>2015-11-26T14:19:46Z</time>
      </trkpt>
      <trkpt lat="46.2177" lon="3.07114">
        <ele>378</ele>
        <time>2015-11-26T14:20:02Z</time>
      </trkpt>
      <trkpt lat="46.21766" lon="3.07131">
        <ele>374</ele>
        <time>2015-11-26T14:20:13Z</time>
      </trkpt>
      <trkpt lat="46.21765" lon="3.0714">
        <ele>373</ele>
        <time>2015-11-26T14:20:19Z</time>
      </trkpt>
      <trkpt lat="46.21758" lon="3.07162">
        <ele>371</ele>
        <time>2015-11-26T14:20:30Z</time>
      </trkpt>
      <trkpt lat="46.21757" lon="3.07184">
        <ele>376</ele>
        <time>2015-11-26T14:20:41Z</time>
      </trkpt>
      <trkpt lat="46.21753" lon="3.07205">
        <ele>379</ele>
        <time>2015-11-26T14:20:55Z</time>
      </trkpt>
      <trkpt lat="46.21754" lon="3.07218">
        <ele>379</ele>
        <time>2015-11-26T14:21:03Z</time>
      </trkpt>
      <trkpt lat="46.21746" lon="3.07228">
        <ele>376</ele>
        <time>2015-11-26T14:21:14Z</time>
      </trkpt>
      <trkpt lat="46.21729" lon="3.07256">
        <ele>378</ele>
        <time>2015-11-26T14:21:33Z</time>
      </trkpt>
      <trkpt lat="46.21726" lon="3.07258">
        <ele>376</ele>
        <time>2015-11-26T14:21:36Z</time>
      </trkpt>
      <trkpt lat="46.21714" lon="3.07288">
        <ele>370</ele>
        <time>2015-11-26T14:21:57Z</time>
      </trkpt>
      <trkpt lat="46.2171" lon="3.07297">
        <ele>371</ele>
        <time>2015-11-26T14:22:01Z</time>
      </trkpt>
      <trkpt lat="46.21705" lon="3.07309">
        <ele>371</ele>
        <time>2015-11-26T14:22:09Z</time>
      </trkpt>
      <trkpt lat="46.21702" lon="3.07325">
        <ele>370</ele>
        <time>2015-11-26T14:22:20Z</time>
      </trkpt>
      <trkpt lat="46.21696" lon="3.0734">
        <ele>367</ele>
        <time>2015-11-26T14:22:31Z</time>
      </trkpt>
      <trkpt lat="46.2169" lon="3.0736">
        <ele>363</ele>
        <time>2015-11-26T14:22:44Z</time>
      </trkpt>
      <trkpt lat="46.21682" lon="3.07382">
        <ele>363</ele>
        <time>2015-11-26T14:22:58Z</time>
      </trkpt>
      <trkpt lat="46.21676" lon="3.07398">
        <ele>364</ele>
        <time>2015-11-26T14:23:08Z</time>
      </trkpt>
      <trkpt lat="46.21671" lon="3.07411">
        <ele>364</ele>
        <time>2015-11-26T14:23:16Z</time>
      </trkpt>
      <trkpt lat="46.21663" lon="3.07426">
        <ele>365</ele>
        <time>2015-11-26T14:23:26Z</time>
      </trkpt>
      <trkpt lat="46.21652" lon="3.07456">
        <ele>362</ele>
        <time>2015-11-26T14:23:47Z</time>
      </trkpt>
      <trkpt lat="46.2165" lon="3.0746">
        <ele>361</ele>
        <time>2015-11-26T14:23:50Z</time>
      </trkpt>
      <trkpt lat="46.21643" lon="3.07474">
        <ele>361</ele>
        <time>2015-11-26T14:24:00Z</time>
      </trkpt>
      <trkpt lat="46.21636" lon="3.07487">
        <ele>359</ele>
        <time>2015-11-26T14:24:10Z</time>
      </trkpt>
      <trkpt lat="46.21632" lon="3.07504">
        <ele>356</ele>
        <time>2015-11-26T14:24:21Z</time>
      </trkpt>
      <trkpt lat="46.21624" lon="3.07524">
        <ele>359</ele>
        <time>2015-11-26T14:24:33Z</time>
      </trkpt>
      <trkpt lat="46.21607" lon="3.07557">
        <ele>362</ele>
        <time>2015-11-26T14:24:53Z</time>
      </trkpt>
      <trkpt lat="46.21603" lon="3.07565">
        <ele>361</ele>
        <time>2015-11-26T14:24:58Z</time>
      </trkpt>
      <trkpt lat="46.21599" lon="3.07583">
        <ele>356</ele>
        <time>2015-11-26T14:25:11Z</time>
      </trkpt>
      <trkpt lat="46.21592" lon="3.07603">
        <ele>360</ele>
        <time>2015-11-26T14:25:23Z</time>
      </trkpt>
      <trkpt lat="46.21585" lon="3.07613">
        <ele>359</ele>
        <time>2015-11-26T14:25:31Z</time>
      </trkpt>
      <trkpt lat="46.21579" lon="3.07619">
        <ele>355</ele>
        <time>2015-11-26T14:25:38Z</time>
      </trkpt>
      <trkpt lat="46.21574" lon="3.07639">
        <ele>357</ele>
        <time>2015-11-26T14:25:50Z</time>
      </trkpt>
      <trkpt lat="46.2157" lon="3.0767">
        <ele>361</ele>
        <time>2015-11-26T14:26:07Z</time>
      </trkpt>
      <trkpt lat="46.21567" lon="3.07688">
        <ele>362</ele>
        <time>2015-11-26T14:26:18Z</time>
      </trkpt>
      <trkpt lat="46.21564" lon="3.07692">
        <ele>362</ele>
        <time>2015-11-26T14:26:22Z</time>
      </trkpt>
      <trkpt lat="46.21559" lon="3.07707">
        <ele>355</ele>
        <time>2015-11-26T14:26:33Z</time>
      </trkpt>
      <trkpt lat="46.21555" lon="3.07729">
        <ele>353</ele>
        <time>2015-11-26T14:26:48Z</time>
      </trkpt>
      <trkpt lat="46.21546" lon="3.07754">
        <ele>354</ele>
        <time>2015-11-26T14:27:05Z</time>
      </trkpt>
      <trkpt lat="46.21547" lon="3.07757">
        <ele>353</ele>
        <time>2015-11-26T14:27:07Z</time>
      </trkpt>
      <trkpt lat="46.21543" lon="3.07791">
        <ele>354</ele>
        <time>2015-11-26T14:27:26Z</time>
      </trkpt>
      <trkpt lat="46.21542" lon="3.07795">
        <ele>355</ele>
        <time>2015-11-26T14:27:28Z</time>
      </trkpt>
      <trkpt lat="46.2154" lon="3.07829">
        <ele>354</ele>
        <time>2015-11-26T14:27:46Z</time>
      </trkpt>
      <trkpt lat="46.21539" lon="3.07836">
        <ele>353</ele>
        <time>2015-11-26T14:27:51Z</time>
      </trkpt>
      <trkpt lat="46.21533" lon="3.07857">
        <ele>349</ele>
        <time>2015-11-26T14:28:04Z</time>
      </trkpt>
      <trkpt lat="46.21532" lon="3.07872">
        <ele>346</ele>
        <time>2015-11-26T14:28:13Z</time>
      </trkpt>
      <trkpt lat="46.21528" lon="3.07905">
        <ele>347</ele>
        <time>2015-11-26T14:28:32Z</time>
      </trkpt>
      <trkpt lat="46.21529" lon="3.07909">
        <ele>347</ele>
        <time>2015-11-26T14:28:34Z</time>
      </trkpt>
      <trkpt lat="46.21529" lon="3.07943">
        <ele>348</ele>
        <time>2015-11-26T14:28:52Z</time>
      </trkpt>
      <trkpt lat="46.21528" lon="3.07953">
        <ele>346</ele>
        <time>2015-11-26T14:28:59Z</time>
      </trkpt>
      <trkpt lat="46.21528" lon="3.07978">
        <ele>345</ele>
        <time>2015-11-26T14:29:13Z</time>
      </trkpt>
      <trkpt lat="46.2153" lon="3.0799">
        <ele>346</ele>
        <time>2015-11-26T14:29:20Z</time>
      </trkpt>
      <trkpt lat="46.21527" lon="3.08007">
        <ele>344</ele>
        <time>2015-11-26T14:29:31Z</time>
      </trkpt>
      <trkpt lat="46.2153" lon="3.08036">
        <ele>342</ele>
        <time>2015-11-26T14:29:49Z</time>
      </trkpt>
      <trkpt lat="46.21534" lon="3.08041">
        <ele>340</ele>
        <time>2015-11-26T14:29:53Z</time>
      </trkpt>
      <trkpt lat="46.21538" lon="3.08053">
        <ele>340</ele>
        <time>2015-11-26T14:30:02Z</time>
      </trkpt>
      <trkpt lat="46.21549" lon="3.08061">
        <ele>339</ele>
        <time>2015-11-26T14:30:13Z</time>
      </trkpt>
      <trkpt lat="46.21568" lon="3.08079">
        <ele>344</ele>
        <time>2015-11-26T14:30:32Z</time>
      </trkpt>
      <trkpt lat="46.21571" lon="3.08083">
        <ele>346</ele>
        <time>2015-11-26T14:30:35Z</time>
      </trkpt>
      <trkpt lat="46.21584" lon="3.08098">
        <ele>347</ele>
        <time>2015-11-26T14:30:49Z</time>
      </trkpt>
      <trkpt lat="46.21594" lon="3.08108">
        <ele>347</ele>
        <time>2015-11-26T14:31:00Z</time>
      </trkpt>
      <trkpt lat="46.21601" lon="3.08116">
        <ele>346</ele>
        <time>2015-11-26T14:31:08Z</time>
      </trkpt>
      <trkpt lat="46.21612" lon="3.08128">
        <ele>347</ele>
        <time>2015-11-26T14:31:19Z</time>
      </trkpt>
      <trkpt lat="46.21619" lon="3.08139">
        <ele>346</ele>
        <time>2015-11-26T14:31:30Z</time>
      </trkpt>
      <trkpt lat="46.21626" lon="3.08153">
        <ele>346</ele>
        <time>2015-11-26T14:31:41Z</time>
      </trkpt>
      <trkpt lat="46.21633" lon="3.08167">
        <ele>347</ele>
        <time>2015-11-26T14:31:52Z</time>
      </trkpt>
      <trkpt lat="46.2164" lon="3.08182">
        <ele>349</ele>
        <time>2015-11-26T14:32:03Z</time>
      </trkpt>
      <trkpt lat="46.21648" lon="3.08201">
        <ele>351</ele>
        <time>2015-11-26T14:32:14Z</time>
      </trkpt>
      <trkpt lat="46.21653" lon="3.08214">
        <ele>351</ele>
        <time>2015-11-26T14:32:25Z</time>
      </trkpt>
      <trkpt lat="46.21663" lon="3.08227">
        <ele>345</ele>
        <time>2015-11-26T14:32:36Z</time>
      </trkpt>
      <trkpt lat="46.21665" lon="3.08245">
        <ele>343</ele>
        <time>2015-11-26T14:32:47Z</time>
      </trkpt>
      <trkpt lat="46.21674" lon="3.08273">
        <ele>340</ele>
        <time>2015-11-26T14:33:03Z</time>
      </trkpt>
      <trkpt lat="46.21675" lon="3.08291">
        <ele>342</ele>
        <time>2015-11-26T14:33:15Z</time>
      </trkpt>
      <trkpt lat="46.21674" lon="3.08296">
        <ele>342</ele>
        <time>2015-11-26T14:33:20Z</time>
      </trkpt>
      <trkpt lat="46.21682" lon="3.08316">
        <ele>339</ele>
        <time>2015-11-26T14:33:31Z</time>
      </trkpt>
      <trkpt lat="46.21683" lon="3.08318">
        <ele>342</ele>
        <time>2015-11-26T14:33:48Z</time>
      </trkpt>
      <trkpt lat="46.21682" lon="3.08318">
        <ele>343</ele>
        <time>2015-11-26T14:33:55Z</time>
      </trkpt>
      <trkpt lat="46.21682" lon="3.08318">
        <ele>343</ele>
        <time>2015-11-26T14:33:57Z</time>
      </trkpt>
      <trkpt lat="46.21682" lon="3.08318">
        <ele>343</ele>
        <time>2015-11-26T14:34:02Z</time>
      </trkpt>
      <trkpt lat="46.21682" lon="3.08318">
        <ele>342</ele>
        <time>2015-11-26T14:34:03Z</time>
      </trkpt>
      <trkpt lat="46.21682" lon="3.08319">
        <ele>342</ele>
        <time>2015-11-26T14:34:07Z</time>
      </trkpt>
      <trkpt lat="46.21682" lon="3.08319">
        <ele>342</ele>
        <time>2015-11-26T14:34:09Z</time>
      </trkpt>
      <trkpt lat="46.21682" lon="3.08319">
        <ele>342</ele>
        <time>2015-11-26T14:34:14Z</time>
      </trkpt>
      <trkpt lat="46.21682" lon="3.08319">
        <ele>342</ele>
        <time>2015-11-26T14:34:15Z</time>
      </trkpt>
      <trkpt lat="46.21686" lon="3.08327">
        <ele>338</ele>
        <time>2015-11-26T14:34:18Z</time>
      </trkpt>
      <trkpt lat="46.21687" lon="3.0838">
        <ele>343</ele>
        <time>2015-11-26T14:34:37Z</time>
      </trkpt>
      <trkpt lat="46.21688" lon="3.08387">
        <ele>345</ele>
        <time>2015-11-26T14:34:41Z</time>
      </trkpt>
      <trkpt lat="46.21688" lon="3.08419">
        <ele>344</ele>
        <time>2015-11-26T14:34:58Z</time>
      </trkpt>
      <trkpt lat="46.21689" lon="3.08426">
        <ele>343</ele>
        <time>2015-11-26T14:35:02Z</time>
      </trkpt>
      <trkpt lat="46.21697" lon="3.08459">
        <ele>345</ele>
        <time>2015-11-26T14:35:17Z</time>
      </trkpt>
      <trkpt lat="46.21699" lon="3.08477">
        <ele>345</ele>
        <time>2015-11-26T14:35:29Z</time>
      </trkpt>
      <trkpt lat="46.21702" lon="3.08495">
        <ele>346</ele>
        <time>2015-11-26T14:35:37Z</time>
      </trkpt>
      <trkpt lat="46.217" lon="3.08509">
        <ele>344</ele>
        <time>2015-11-26T14:35:47Z</time>
      </trkpt>
      <trkpt lat="46.21703" lon="3.08528">
        <ele>342</ele>
        <time>2015-11-26T14:35:57Z</time>
      </trkpt>
      <trkpt lat="46.21706" lon="3.08545">
        <ele>342</ele>
        <time>2015-11-26T14:36:08Z</time>
      </trkpt>
      <trkpt lat="46.21707" lon="3.08565">
        <ele>343</ele>
        <time>2015-11-26T14:36:19Z</time>
      </trkpt>
      <trkpt lat="46.21711" lon="3.08588">
        <ele>342</ele>
        <time>2015-11-26T14:36:32Z</time>
      </trkpt>
      <trkpt lat="46.21713" lon="3.08601">
        <ele>341</ele>
        <time>2015-11-26T14:36:41Z</time>
      </trkpt>
      <trkpt lat="46.21716" lon="3.08619">
        <ele>343</ele>
        <time>2015-11-26T14:36:52Z</time>
      </trkpt>
      <trkpt lat="46.2172" lon="3.0864">
        <ele>342</ele>
        <time>2015-11-26T14:37:04Z</time>
      </trkpt>
      <trkpt lat="46.2172" lon="3.08659">
        <ele>342</ele>
        <time>2015-11-26T14:37:14Z</time>
      </trkpt>
      <trkpt lat="46.21725" lon="3.08678">
        <ele>341</ele>
        <time>2015-11-26T14:37:25Z</time>
      </trkpt>
      <trkpt lat="46.21728" lon="3.08699">
        <ele>340</ele>
        <time>2015-11-26T14:37:36Z</time>
      </trkpt>
      <trkpt lat="46.21731" lon="3.08718">
        <ele>342</ele>
        <time>2015-11-26T14:37:47Z</time>
      </trkpt>
      <trkpt lat="46.21735" lon="3.08736">
        <ele>342</ele>
        <time>2015-11-26T14:37:58Z</time>
      </trkpt>
      <trkpt lat="46.21738" lon="3.08765">
        <ele>341</ele>
        <time>2015-11-26T14:38:16Z</time>
      </trkpt>
      <trkpt lat="46.21739" lon="3.08776">
        <ele>341</ele>
        <time>2015-11-26T14:38:22Z</time>
      </trkpt>
      <trkpt lat="46.21741" lon="3.08797">
        <ele>341</ele>
        <time>2015-11-26T14:38:34Z</time>
      </trkpt>
      <trkpt lat="46.21742" lon="3.08813">
        <ele>341</ele>
        <time>2015-11-26T14:38:42Z</time>
      </trkpt>
      <trkpt lat="46.21741" lon="3.08836">
        <ele>341</ele>
        <time>2015-11-26T14:38:57Z</time>
      </trkpt>
      <trkpt lat="46.21734" lon="3.08842">
        <ele>340</ele>
        <time>2015-11-26T14:39:04Z</time>
      </trkpt>
      <trkpt lat="46.2172" lon="3.08849">
        <ele>340</ele>
        <time>2015-11-26T14:39:16Z</time>
      </trkpt>
      <trkpt lat="46.21708" lon="3.08852">
        <ele>337</ele>
        <time>2015-11-26T14:39:28Z</time>
      </trkpt>
      <trkpt lat="46.2169" lon="3.08858">
        <ele>336</ele>
        <time>2015-11-26T14:39:44Z</time>
      </trkpt>
      <trkpt lat="46.21686" lon="3.0886">
        <ele>335</ele>
        <time>2015-11-26T14:39:48Z</time>
      </trkpt>
      <trkpt lat="46.21663" lon="3.0887">
        <ele>339</ele>
        <time>2015-11-26T14:40:06Z</time>
      </trkpt>
      <trkpt lat="46.21658" lon="3.08869">
        <ele>335</ele>
        <time>2015-11-26T14:40:15Z</time>
      </trkpt>
      <trkpt lat="46.21655" lon="3.0887">
        <ele>334</ele>
        <time>2015-11-26T14:40:21Z</time>
      </trkpt>
      <trkpt lat="46.21635" lon="3.08873">
        <ele>330</ele>
        <time>2015-11-26T14:40:42Z</time>
      </trkpt>
      <trkpt lat="46.21631" lon="3.08873">
        <ele>330</ele>
        <time>2015-11-26T14:40:44Z</time>
      </trkpt>
      <trkpt lat="46.21604" lon="3.08887">
        <ele>332</ele>
        <time>2015-11-26T14:41:03Z</time>
      </trkpt>
      <trkpt lat="46.21596" lon="3.08886">
        <ele>334</ele>
        <time>2015-11-26T14:41:10Z</time>
      </trkpt>
      <trkpt lat="46.21588" lon="3.08887">
        <ele>339</ele>
        <time>2015-11-26T14:41:16Z</time>
      </trkpt>
      <trkpt lat="46.21593" lon="3.08904">
        <ele>327</ele>
        <time>2015-11-26T14:41:33Z</time>
      </trkpt>
      <trkpt lat="46.21592" lon="3.08912">
        <ele>328</ele>
        <time>2015-11-26T14:41:38Z</time>
      </trkpt>
      <trkpt lat="46.21593" lon="3.08912">
        <ele>325</ele>
        <time>2015-11-26T14:41:49Z</time>
      </trkpt>
      <trkpt lat="46.21592" lon="3.08915">
        <ele>325</ele>
        <time>2015-11-26T14:41:52Z</time>
      </trkpt>
      <trkpt lat="46.21591" lon="3.0894">
        <ele>329</ele>
        <time>2015-11-26T14:42:08Z</time>
      </trkpt>
      <trkpt lat="46.21596" lon="3.08964">
        <ele>325</ele>
        <time>2015-11-26T14:42:23Z</time>
      </trkpt>
      <trkpt lat="46.21596" lon="3.08969">
        <ele>324</ele>
        <time>2015-11-26T14:42:25Z</time>
      </trkpt>
      <trkpt lat="46.21594" lon="3.0899">
        <ele>321</ele>
        <time>2015-11-26T14:42:38Z</time>
      </trkpt>
      <trkpt lat="46.21595" lon="3.09005">
        <ele>321</ele>
        <time>2015-11-26T14:42:47Z</time>
      </trkpt>
      <trkpt lat="46.21597" lon="3.09026">
        <ele>320</ele>
        <time>2015-11-26T14:42:59Z</time>
      </trkpt>
      <trkpt lat="46.21597" lon="3.09053">
        <ele>322</ele>
        <time>2015-11-26T14:43:12Z</time>
      </trkpt>
      <trkpt lat="46.21598" lon="3.09067">
        <ele>323</ele>
        <time>2015-11-26T14:43:20Z</time>
      </trkpt>
      <trkpt lat="46.21597" lon="3.09088">
        <ele>326</ele>
        <time>2015-11-26T14:43:32Z</time>
      </trkpt>
      <trkpt lat="46.21599" lon="3.09106">
        <ele>323</ele>
        <time>2015-11-26T14:43:42Z</time>
      </trkpt>
      <trkpt lat="46.21594" lon="3.09132">
        <ele>325</ele>
        <time>2015-11-26T14:43:59Z</time>
      </trkpt>
      <trkpt lat="46.21593" lon="3.09132">
        <ele>326</ele>
        <time>2015-11-26T14:44:04Z</time>
      </trkpt>
      <trkpt lat="46.21592" lon="3.09132">
        <ele>327</ele>
        <time>2015-11-26T14:44:13Z</time>
      </trkpt>
      <trkpt lat="46.21592" lon="3.09133">
        <ele>327</ele>
        <time>2015-11-26T14:44:16Z</time>
      </trkpt>
      <trkpt lat="46.21592" lon="3.09133">
        <ele>327</ele>
        <time>2015-11-26T14:44:19Z</time>
      </trkpt>
      <trkpt lat="46.21592" lon="3.09133">
        <ele>327</ele>
        <time>2015-11-26T14:44:22Z</time>
      </trkpt>
      <trkpt lat="46.21592" lon="3.09132">
        <ele>326</ele>
        <time>2015-11-26T14:44:25Z</time>
      </trkpt>
      <trkpt lat="46.21592" lon="3.09133">
        <ele>326</ele>
        <time>2015-11-26T14:44:29Z</time>
      </trkpt>
      <trkpt lat="46.21593" lon="3.09132">
        <ele>325</ele>
        <time>2015-11-26T14:44:34Z</time>
      </trkpt>
      <trkpt lat="46.21593" lon="3.09132">
        <ele>324</ele>
        <time>2015-11-26T14:44:37Z</time>
      </trkpt>
      <trkpt lat="46.21593" lon="3.09132">
        <ele>324</ele>
        <time>2015-11-26T14:44:40Z</time>
      </trkpt>
      <trkpt lat="46.21593" lon="3.09132">
        <ele>325</ele>
        <time>2015-11-26T14:44:43Z</time>
      </trkpt>
      <trkpt lat="46.21593" lon="3.09132">
        <ele>326</ele>
        <time>2015-11-26T14:44:48Z</time>
      </trkpt>
      <trkpt lat="46.21593" lon="3.09132">
        <ele>326</ele>
        <time>2015-11-26T14:44:52Z</time>
      </trkpt>
      <trkpt lat="46.21593" lon="3.09132">
        <ele>326</ele>
        <time>2015-11-26T14:44:57Z</time>
      </trkpt>
      <trkpt lat="46.21593" lon="3.09132">
        <ele>326</ele>
        <time>2015-11-26T14:44:58Z</time>
      </trkpt>
      <trkpt lat="46.21593" lon="3.09132">
        <ele>326</ele>
        <time>2015-11-26T14:45:01Z</time>
      </trkpt>
      <trkpt lat="46.21593" lon="3.09132">
        <ele>326</ele>
        <time>2015-11-26T14:45:04Z</time>
      </trkpt>
      <trkpt lat="46.21593" lon="3.09132">
        <ele>326</ele>
        <time>2015-11-26T14:45:07Z</time>
      </trkpt>
      <trkpt lat="46.21593" lon="3.09132">
        <ele>326</ele>
        <time>2015-11-26T14:45:10Z</time>
      </trkpt>
      <trkpt lat="46.21593" lon="3.09132">
        <ele>326</ele>
        <time>2015-11-26T14:45:15Z</time>
      </trkpt>
      <trkpt lat="46.21593" lon="3.09132">
        <ele>326</ele>
        <time>2015-11-26T14:45:16Z</time>
      </trkpt>
      <trkpt lat="46.21593" lon="3.09132">
        <ele>326</ele>
        <time>2015-11-26T14:45:19Z</time>
      </trkpt>
      <trkpt lat="46.21593" lon="3.09132">
        <ele>326</ele>
        <time>2015-11-26T14:45:22Z</time>
      </trkpt>
      <trkpt lat="46.21593" lon="3.09132">
        <ele>326</ele>
        <time>2015-11-26T14:45:25Z</time>
      </trkpt>
      <trkpt lat="46.21593" lon="3.09132">
        <ele>326</ele>
        <time>2015-11-26T14:45:28Z</time>
      </trkpt>
      <trkpt lat="46.21593" lon="3.09132">
        <ele>326</ele>
        <time>2015-11-26T14:45:33Z</time>
      </trkpt>
      <trkpt lat="46.21593" lon="3.09132">
        <ele>326</ele>
        <time>2015-11-26T14:45:34Z</time>
      </trkpt>
      <trkpt lat="46.21593" lon="3.09132">
        <ele>326</ele>
        <time>2015-11-26T14:45:39Z</time>
      </trkpt>
      <trkpt lat="46.21593" lon="3.09132">
        <ele>326</ele>
        <time>2015-11-26T14:45:41Z</time>
      </trkpt>
      <trkpt lat="46.21593" lon="3.09132">
        <ele>326</ele>
        <time>2015-11-26T14:45:45Z</time>
      </trkpt>
      <trkpt lat="46.21593" lon="3.09132">
        <ele>326</ele>
        <time>2015-11-26T14:45:48Z</time>
      </trkpt>
      <trkpt lat="46.21593" lon="3.09132">
        <ele>326</ele>
        <time>2015-11-26T14:45:49Z</time>
      </trkpt>
      <trkpt lat="46.21593" lon="3.09131">
        <ele>328</ele>
        <time>2015-11-26T14:45:55Z</time>
      </trkpt>
      <trkpt lat="46.21595" lon="3.09139">
        <ele>327</ele>
        <time>2015-11-26T14:46:06Z</time>
      </trkpt>
      <trkpt lat="46.21594" lon="3.09138">
        <ele>326</ele>
        <time>2015-11-26T14:46:09Z</time>
      </trkpt>
      <trkpt lat="46.21593" lon="3.09136">
        <ele>323</ele>
        <time>2015-11-26T14:46:20Z</time>
      </trkpt>
      <trkpt lat="46.21593" lon="3.09134">
        <ele>323</ele>
        <time>2015-11-26T14:46:30Z</time>
      </trkpt>
      <trkpt lat="46.21592" lon="3.09135">
        <ele>324</ele>
        <time>2015-11-26T14:46:40Z</time>
      </trkpt>
      <trkpt lat="46.21592" lon="3.09135">
        <ele>323</ele>
        <time>2015-11-26T14:46:47Z</time>
      </trkpt>
      <trkpt lat="46.21592" lon="3.09135">
        <ele>323</ele>
        <time>2015-11-26T14:46:50Z</time>
      </trkpt>
      <trkpt lat="46.21592" lon="3.09135">
        <ele>323</ele>
        <time>2015-11-26T14:46:53Z</time>
      </trkpt>
      <trkpt lat="46.21592" lon="3.09135">
        <ele>323</ele>
        <time>2015-11-26T14:46:56Z</time>
      </trkpt>
      <trkpt lat="46.21592" lon="3.09135">
        <ele>323</ele>
        <time>2015-11-26T14:46:59Z</time>
      </trkpt>
      <trkpt lat="46.21592" lon="3.09135">
        <ele>323</ele>
        <time>2015-11-26T14:47:02Z</time>
      </trkpt>
      <trkpt lat="46.21592" lon="3.09134">
        <ele>323</ele>
        <time>2015-11-26T14:47:08Z</time>
      </trkpt>
      <trkpt lat="46.21593" lon="3.09133">
        <ele>323</ele>
        <time>2015-11-26T14:47:14Z</time>
      </trkpt>
      <trkpt lat="46.21593" lon="3.09133">
        <ele>322</ele>
        <time>2015-11-26T14:47:17Z</time>
      </trkpt>
      <trkpt lat="46.21593" lon="3.09133">
        <ele>322</ele>
        <time>2015-11-26T14:47:21Z</time>
      </trkpt>
      <trkpt lat="46.21593" lon="3.09133">
        <ele>322</ele>
        <time>2015-11-26T14:47:23Z</time>
      </trkpt>
      <trkpt lat="46.21593" lon="3.09133">
        <ele>322</ele>
        <time>2015-11-26T14:47:26Z</time>
      </trkpt>
      <trkpt lat="46.21593" lon="3.09133">
        <ele>322</ele>
        <time>2015-11-26T14:47:29Z</time>
      </trkpt>
      <trkpt lat="46.21593" lon="3.09133">
        <ele>322</ele>
        <time>2015-11-26T14:47:32Z</time>
      </trkpt>
      <trkpt lat="46.21593" lon="3.09133">
        <ele>322</ele>
        <time>2015-11-26T14:47:35Z</time>
      </trkpt>
      <trkpt lat="46.21593" lon="3.09133">
        <ele>322</ele>
        <time>2015-11-26T14:47:38Z</time>
      </trkpt>
      <trkpt lat="46.21594" lon="3.09133">
        <ele>322</ele>
        <time>2015-11-26T14:47:45Z</time>
      </trkpt>
      <trkpt lat="46.21594" lon="3.09133">
        <ele>322</ele>
        <time>2015-11-26T14:47:50Z</time>
      </trkpt>
      <trkpt lat="46.21594" lon="3.09134">
        <ele>322</ele>
        <time>2015-11-26T14:47:53Z</time>
      </trkpt>
      <trkpt lat="46.21594" lon="3.09133">
        <ele>322</ele>
        <time>2015-11-26T14:47:56Z</time>
      </trkpt>
      <trkpt lat="46.21594" lon="3.09133">
        <ele>322</ele>
        <time>2015-11-26T14:47:59Z</time>
      </trkpt>
      <trkpt lat="46.21594" lon="3.09133">
        <ele>322</ele>
        <time>2015-11-26T14:48:02Z</time>
      </trkpt>
      <trkpt lat="46.21592" lon="3.09132">
        <ele>321</ele>
        <time>2015-11-26T14:48:05Z</time>
      </trkpt>
      <trkpt lat="46.21579" lon="3.09133">
        <ele>321</ele>
        <time>2015-11-26T14:48:16Z</time>
      </trkpt>
      <trkpt lat="46.21563" lon="3.09133">
        <ele>322</ele>
        <time>2015-11-26T14:48:30Z</time>
      </trkpt>
      <trkpt lat="46.21555" lon="3.09131">
        <ele>323</ele>
        <time>2015-11-26T14:48:38Z</time>
      </trkpt>
      <trkpt lat="46.21545" lon="3.09123">
        <ele>321</ele>
        <time>2015-11-26T14:48:49Z</time>
      </trkpt>
      <trkpt lat="46.21534" lon="3.09118">
        <ele>322</ele>
        <time>2015-11-26T14:49:00Z</time>
      </trkpt>
      <trkpt lat="46.21511" lon="3.09107">
        <ele>322</ele>
        <time>2015-11-26T14:49:21Z</time>
      </trkpt>
      <trkpt lat="46.21509" lon="3.09104">
        <ele>318</ele>
        <time>2015-11-26T14:49:24Z</time>
      </trkpt>
      <trkpt lat="46.21497" lon="3.09098">
        <ele>323</ele>
        <time>2015-11-26T14:49:33Z</time>
      </trkpt>
      <trkpt lat="46.21485" lon="3.0909">
        <ele>321</ele>
        <time>2015-11-26T14:49:44Z</time>
      </trkpt>
      <trkpt lat="46.21473" lon="3.09082">
        <ele>321</ele>
        <time>2015-11-26T14:49:55Z</time>
      </trkpt>
      <trkpt lat="46.21461" lon="3.09074">
        <ele>320</ele>
        <time>2015-11-26T14:50:06Z</time>
      </trkpt>
      <trkpt lat="46.21437" lon="3.09059">
        <ele>318</ele>
        <time>2015-11-26T14:50:27Z</time>
      </trkpt>
      <trkpt lat="46.21434" lon="3.09057">
        <ele>318</ele>
        <time>2015-11-26T14:50:29Z</time>
      </trkpt>
      <trkpt lat="46.21421" lon="3.09053">
        <ele>320</ele>
        <time>2015-11-26T14:50:39Z</time>
      </trkpt>
      <trkpt lat="46.21412" lon="3.09044">
        <ele>315</ele>
        <time>2015-11-26T14:50:50Z</time>
      </trkpt>
      <trkpt lat="46.21402" lon="3.09033">
        <ele>318</ele>
        <time>2015-11-26T14:51:01Z</time>
      </trkpt>
      <trkpt lat="46.21388" lon="3.09017">
        <ele>321</ele>
        <time>2015-11-26T14:51:14Z</time>
      </trkpt>
      <trkpt lat="46.21378" lon="3.09005">
        <ele>321</ele>
        <time>2015-11-26T14:51:24Z</time>
      </trkpt>
      <trkpt lat="46.21365" lon="3.08987">
        <ele>324</ele>
        <time>2015-11-26T14:51:38Z</time>
      </trkpt>
      <trkpt lat="46.21358" lon="3.08976">
        <ele>326</ele>
        <time>2015-11-26T14:51:45Z</time>
      </trkpt>
      <trkpt lat="46.21342" lon="3.08959">
        <ele>320</ele>
        <time>2015-11-26T14:52:04Z</time>
      </trkpt>
      <trkpt lat="46.21338" lon="3.08957">
        <ele>323</ele>
        <time>2015-11-26T14:52:07Z</time>
      </trkpt>
      <trkpt lat="46.21326" lon="3.08936">
        <ele>318</ele>
        <time>2015-11-26T14:52:27Z</time>
      </trkpt>
      <trkpt lat="46.21325" lon="3.08934">
        <ele>318</ele>
        <time>2015-11-26T14:52:29Z</time>
      </trkpt>
      <trkpt lat="46.21315" lon="3.08923">
        <ele>319</ele>
        <time>2015-11-26T14:52:41Z</time>
      </trkpt>
      <trkpt lat="46.21309" lon="3.0891">
        <ele>317</ele>
        <time>2015-11-26T14:52:51Z</time>
      </trkpt>
      <trkpt lat="46.21302" lon="3.08895">
        <ele>316</ele>
        <time>2015-11-26T14:53:02Z</time>
      </trkpt>
      <trkpt lat="46.21287" lon="3.08872">
        <ele>321</ele>
        <time>2015-11-26T14:53:17Z</time>
      </trkpt>
      <trkpt lat="46.21282" lon="3.08862">
        <ele>324</ele>
        <time>2015-11-26T14:53:24Z</time>
      </trkpt>
      <trkpt lat="46.21271" lon="3.08844">
        <ele>323</ele>
        <time>2015-11-26T14:53:40Z</time>
      </trkpt>
      <trkpt lat="46.21262" lon="3.08844">
        <ele>323</ele>
        <time>2015-11-26T14:53:47Z</time>
      </trkpt>
      <trkpt lat="46.21255" lon="3.08852">
        <ele>318</ele>
        <time>2015-11-26T14:53:57Z</time>
      </trkpt>
      <trkpt lat="46.21245" lon="3.08867">
        <ele>318</ele>
        <time>2015-11-26T14:54:08Z</time>
      </trkpt>
      <trkpt lat="46.21231" lon="3.08889">
        <ele>323</ele>
        <time>2015-11-26T14:54:24Z</time>
      </trkpt>
      <trkpt lat="46.21227" lon="3.08896">
        <ele>321</ele>
        <time>2015-11-26T14:54:30Z</time>
      </trkpt>
      <trkpt lat="46.21214" lon="3.08918">
        <ele>313</ele>
        <time>2015-11-26T14:54:49Z</time>
      </trkpt>
      <trkpt lat="46.21211" lon="3.08922">
        <ele>313</ele>
        <time>2015-11-26T14:54:52Z</time>
      </trkpt>
      <trkpt lat="46.21199" lon="3.08939">
        <ele>317</ele>
        <time>2015-11-26T14:55:03Z</time>
      </trkpt>
      <trkpt lat="46.21191" lon="3.08952">
        <ele>316</ele>
        <time>2015-11-26T14:55:14Z</time>
      </trkpt>
      <trkpt lat="46.21184" lon="3.08968">
        <ele>313</ele>
        <time>2015-11-26T14:55:25Z</time>
      </trkpt>
      <trkpt lat="46.21169" lon="3.08986">
        <ele>315</ele>
        <time>2015-11-26T14:55:41Z</time>
      </trkpt>
      <trkpt lat="46.21156" lon="3.09007">
        <ele>314</ele>
        <time>2015-11-26T14:55:56Z</time>
      </trkpt>
      <trkpt lat="46.21153" lon="3.09011">
        <ele>315</ele>
        <time>2015-11-26T14:55:59Z</time>
      </trkpt>
      <trkpt lat="46.21151" lon="3.09015">
        <ele>313</ele>
        <time>2015-11-26T14:56:13Z</time>
      </trkpt>
      <trkpt lat="46.21152" lon="3.09016">
        <ele>313</ele>
        <time>2015-11-26T14:56:20Z</time>
      </trkpt>
      <trkpt lat="46.21151" lon="3.09016">
        <ele>312</ele>
        <time>2015-11-26T14:56:23Z</time>
      </trkpt>
      <trkpt lat="46.2115" lon="3.09015">
        <ele>313</ele>
        <time>2015-11-26T14:56:32Z</time>
      </trkpt>
      <trkpt lat="46.2115" lon="3.09015">
        <ele>313</ele>
        <time>2015-11-26T14:56:35Z</time>
      </trkpt>
      <trkpt lat="46.2115" lon="3.09015">
        <ele>313</ele>
        <time>2015-11-26T14:56:38Z</time>
      </trkpt>
      <trkpt lat="46.2115" lon="3.09015">
        <ele>313</ele>
        <time>2015-11-26T14:56:41Z</time>
      </trkpt>
      <trkpt lat="46.2115" lon="3.09015">
        <ele>313</ele>
        <time>2015-11-26T14:56:44Z</time>
      </trkpt>
      <trkpt lat="46.2115" lon="3.09015">
        <ele>313</ele>
        <time>2015-11-26T14:56:47Z</time>
      </trkpt>
      <trkpt lat="46.2115" lon="3.09015">
        <ele>313</ele>
        <time>2015-11-26T14:56:51Z</time>
      </trkpt>
      <trkpt lat="46.2115" lon="3.09015">
        <ele>313</ele>
        <time>2015-11-26T14:56:53Z</time>
      </trkpt>
      <trkpt lat="46.2115" lon="3.09015">
        <ele>313</ele>
        <time>2015-11-26T14:56:56Z</time>
      </trkpt>
      <trkpt lat="46.2115" lon="3.09015">
        <ele>313</ele>
        <time>2015-11-26T14:56:59Z</time>
      </trkpt>
      <trkpt lat="46.2115" lon="3.09015">
        <ele>313</ele>
        <time>2015-11-26T14:57:02Z</time>
      </trkpt>
      <trkpt lat="46.2115" lon="3.09015">
        <ele>313</ele>
        <time>2015-11-26T14:57:05Z</time>
      </trkpt>
      <trkpt lat="46.2115" lon="3.09015">
        <ele>313</ele>
        <time>2015-11-26T14:57:08Z</time>
      </trkpt>
      <trkpt lat="46.2115" lon="3.09015">
        <ele>313</ele>
        <time>2015-11-26T14:57:12Z</time>
      </trkpt>
      <trkpt lat="46.2115" lon="3.09015">
        <ele>313</ele>
        <time>2015-11-26T14:57:14Z</time>
      </trkpt>
      <trkpt lat="46.2115" lon="3.09015">
        <ele>313</ele>
        <time>2015-11-26T14:57:17Z</time>
      </trkpt>
      <trkpt lat="46.2115" lon="3.09015">
        <ele>313</ele>
        <time>2015-11-26T14:57:20Z</time>
      </trkpt>
      <trkpt lat="46.2115" lon="3.09015">
        <ele>313</ele>
        <time>2015-11-26T14:57:23Z</time>
      </trkpt>
      <trkpt lat="46.2115" lon="3.09015">
        <ele>313</ele>
        <time>2015-11-26T14:57:26Z</time>
      </trkpt>
      <trkpt lat="46.2115" lon="3.09015">
        <ele>313</ele>
        <time>2015-11-26T14:57:29Z</time>
      </trkpt>
      <trkpt lat="46.2115" lon="3.09015">
        <ele>313</ele>
        <time>2015-11-26T14:57:33Z</time>
      </trkpt>
      <trkpt lat="46.2115" lon="3.09015">
        <ele>313</ele>
        <time>2015-11-26T14:57:36Z</time>
      </trkpt>
      <trkpt lat="46.2115" lon="3.09015">
        <ele>313</ele>
        <time>2015-11-26T14:57:40Z</time>
      </trkpt>
      <trkpt lat="46.2115" lon="3.09015">
        <ele>313</ele>
        <time>2015-11-26T14:57:41Z</time>
      </trkpt>
      <trkpt lat="46.2115" lon="3.09015">
        <ele>313</ele>
        <time>2015-11-26T14:57:46Z</time>
      </trkpt>
      <trkpt lat="46.2115" lon="3.09015">
        <ele>313</ele>
        <time>2015-11-26T14:57:47Z</time>
      </trkpt>
      <trkpt lat="46.2115" lon="3.09015">
        <ele>313</ele>
        <time>2015-11-26T14:57:50Z</time>
      </trkpt>
      <trkpt lat="46.2115" lon="3.09015">
        <ele>313</ele>
        <time>2015-11-26T14:57:53Z</time>
      </trkpt>
      <trkpt lat="46.2115" lon="3.09015">
        <ele>313</ele>
        <time>2015-11-26T14:57:56Z</time>
      </trkpt>
      <trkpt lat="46.21153" lon="3.09021">
        <ele>313</ele>
        <time>2015-11-26T14:57:59Z</time>
      </trkpt>
      <trkpt lat="46.21183" lon="3.0904">
        <ele>308</ele>
        <time>2015-11-26T14:58:13Z</time>
      </trkpt>
      <trkpt lat="46.21195" lon="3.09056">
        <ele>309</ele>
        <time>2015-11-26T14:58:22Z</time>
      </trkpt>
      <trkpt lat="46.21217" lon="3.0908">
        <ele>310</ele>
        <time>2015-11-26T14:58:41Z</time>
      </trkpt>
      <trkpt lat="46.21226" lon="3.0909">
        <ele>311</ele>
        <time>2015-11-26T14:58:50Z</time>
      </trkpt>
      <trkpt lat="46.21232" lon="3.09104">
        <ele>312</ele>
        <time>2015-11-26T14:58:58Z</time>
      </trkpt>
      <trkpt lat="46.21249" lon="3.09122">
        <ele>315</ele>
        <time>2015-11-26T14:59:14Z</time>
      </trkpt>
      <trkpt lat="46.2125" lon="3.09124">
        <ele>317</ele>
        <time>2015-11-26T14:59:16Z</time>
      </trkpt>
      <trkpt lat="46.21258" lon="3.09138">
        <ele>315</ele>
        <time>2015-11-26T14:59:27Z</time>
      </trkpt>
      <trkpt lat="46.21267" lon="3.09152">
        <ele>319</ele>
        <time>2015-11-26T14:59:38Z</time>
      </trkpt>
      <trkpt lat="46.21272" lon="3.09166">
        <ele>318</ele>
        <time>2015-11-26T14:59:49Z</time>
      </trkpt>
      <trkpt lat="46.2126" lon="3.09188">
        <ele>317</ele>
        <time>2015-11-26T15:00:06Z</time>
      </trkpt>
      <trkpt lat="46.21253" lon="3.09193">
        <ele>313</ele>
        <time>2015-11-26T15:00:11Z</time>
      </trkpt>
      <trkpt lat="46.21232" lon="3.09214">
        <ele>315</ele>
        <time>2015-11-26T15:00:32Z</time>
      </trkpt>
      <trkpt lat="46.21226" lon="3.09223">
        <ele>314</ele>
        <time>2015-11-26T15:00:37Z</time>
      </trkpt>
      <trkpt lat="46.21218" lon="3.09231">
        <ele>309</ele>
        <time>2015-11-26T15:00:46Z</time>
      </trkpt>
      <trkpt lat="46.21202" lon="3.09246">
        <ele>307</ele>
        <time>2015-11-26T15:01:00Z</time>
      </trkpt>
      <trkpt lat="46.21185" lon="3.09263">
        <ele>310</ele>
        <time>2015-11-26T15:01:13Z</time>
      </trkpt>
      <trkpt lat="46.21177" lon="3.09277">
        <ele>313</ele>
        <time>2015-11-26T15:01:21Z</time>
      </trkpt>
      <trkpt lat="46.21172" lon="3.09276">
        <ele>311</ele>
        <time>2015-11-26T15:01:29Z</time>
      </trkpt>
      <trkpt lat="46.21146" lon="3.09304">
        <ele>313</ele>
        <time>2015-11-26T15:01:47Z</time>
      </trkpt>
      <trkpt lat="46.21135" lon="3.09311">
        <ele>308</ele>
        <time>2015-11-26T15:02:00Z</time>
      </trkpt>
      <trkpt lat="46.21135" lon="3.09312">
        <ele>307</ele>
        <time>2015-11-26T15:02:01Z</time>
      </trkpt>
      <trkpt lat="46.2112" lon="3.09323">
        <ele>309</ele>
        <time>2015-11-26T15:02:13Z</time>
      </trkpt>
      <trkpt lat="46.21109" lon="3.0933">
        <ele>304</ele>
        <time>2015-11-26T15:02:23Z</time>
      </trkpt>
      <trkpt lat="46.21099" lon="3.09338">
        <ele>296</ele>
        <time>2015-11-26T15:02:34Z</time>
      </trkpt>
      <trkpt lat="46.21082" lon="3.09368">
        <ele>301</ele>
        <time>2015-11-26T15:02:50Z</time>
      </trkpt>
      <trkpt lat="46.21075" lon="3.09374">
        <ele>302</ele>
        <time>2015-11-26T15:02:56Z</time>
      </trkpt>
      <trkpt lat="46.21065" lon="3.09382">
        <ele>299</ele>
        <time>2015-11-26T15:03:08Z</time>
      </trkpt>
      <trkpt lat="46.21051" lon="3.09393">
        <ele>307</ele>
        <time>2015-11-26T15:03:18Z</time>
      </trkpt>
      <trkpt lat="46.21039" lon="3.09395">
        <ele>305</ele>
        <time>2015-11-26T15:03:29Z</time>
      </trkpt>
      <trkpt lat="46.21019" lon="3.09406">
        <ele>305</ele>
        <time>2015-11-26T15:03:43Z</time>
      </trkpt>
      <trkpt lat="46.21009" lon="3.09412">
        <ele>305</ele>
        <time>2015-11-26T15:03:51Z</time>
      </trkpt>
      <trkpt lat="46.2099" lon="3.0942">
        <ele>311</ele>
        <time>2015-11-26T15:04:06Z</time>
      </trkpt>
      <trkpt lat="46.20974" lon="3.0942">
        <ele>306</ele>
        <time>2015-11-26T15:04:21Z</time>
      </trkpt>
      <trkpt lat="46.20962" lon="3.09422">
        <ele>304</ele>
        <time>2015-11-26T15:04:29Z</time>
      </trkpt>
      <trkpt lat="46.20956" lon="3.09427">
        <ele>302</ele>
        <time>2015-11-26T15:04:35Z</time>
      </trkpt>
      <trkpt lat="46.20938" lon="3.09435">
        <ele>304</ele>
        <time>2015-11-26T15:04:50Z</time>
      </trkpt>
      <trkpt lat="46.20929" lon="3.0944">
        <ele>302</ele>
        <time>2015-11-26T15:04:58Z</time>
      </trkpt>
      <trkpt lat="46.20914" lon="3.09449">
        <ele>301</ele>
        <time>2015-11-26T15:05:10Z</time>
      </trkpt>
      <trkpt lat="46.20891" lon="3.09467">
        <ele>304</ele>
        <time>2015-11-26T15:05:29Z</time>
      </trkpt>
      <trkpt lat="46.2089" lon="3.09469">
        <ele>304</ele>
        <time>2015-11-26T15:05:30Z</time>
      </trkpt>
      <trkpt lat="46.20888" lon="3.09464">
        <ele>298</ele>
        <time>2015-11-26T15:05:41Z</time>
      </trkpt>
      <trkpt lat="46.20877" lon="3.09448">
        <ele>295</ele>
        <time>2015-11-26T15:05:55Z</time>
      </trkpt>
      <trkpt lat="46.20861" lon="3.09443">
        <ele>294</ele>
        <time>2015-11-26T15:06:09Z</time>
      </trkpt>
      <trkpt lat="46.20854" lon="3.09448">
        <ele>301</ele>
        <time>2015-11-26T15:06:21Z</time>
      </trkpt>
      <trkpt lat="46.20853" lon="3.09448">
        <ele>301</ele>
        <time>2015-11-26T15:06:25Z</time>
      </trkpt>
      <trkpt lat="46.20853" lon="3.0945">
        <ele>301</ele>
        <time>2015-11-26T15:06:32Z</time>
      </trkpt>
      <trkpt lat="46.20854" lon="3.09451">
        <ele>301</ele>
        <time>2015-11-26T15:06:39Z</time>
      </trkpt>
      <trkpt lat="46.20854" lon="3.09452">
        <ele>301</ele>
        <time>2015-11-26T15:06:42Z</time>
      </trkpt>
      <trkpt lat="46.20854" lon="3.09452">
        <ele>301</ele>
        <time>2015-11-26T15:06:45Z</time>
      </trkpt>
      <trkpt lat="46.20854" lon="3.09452">
        <ele>301</ele>
        <time>2015-11-26T15:06:50Z</time>
      </trkpt>
      <trkpt lat="46.20854" lon="3.09452">
        <ele>301</ele>
        <time>2015-11-26T15:06:51Z</time>
      </trkpt>
      <trkpt lat="46.20854" lon="3.09452">
        <ele>301</ele>
        <time>2015-11-26T15:06:54Z</time>
      </trkpt>
      <trkpt lat="46.20854" lon="3.09452">
        <ele>301</ele>
        <time>2015-11-26T15:06:57Z</time>
      </trkpt>
      <trkpt lat="46.20854" lon="3.09452">
        <ele>301</ele>
        <time>2015-11-26T15:07:00Z</time>
      </trkpt>
      <trkpt lat="46.20861" lon="3.09446">
        <ele>305</ele>
        <time>2015-11-26T15:07:13Z</time>
      </trkpt>
      <trkpt lat="46.20859" lon="3.09445">
        <ele>305</ele>
        <time>2015-11-26T15:07:15Z</time>
      </trkpt>
      <trkpt lat="46.20854" lon="3.09434">
        <ele>306</ele>
        <time>2015-11-26T15:07:25Z</time>
      </trkpt>
      <trkpt lat="46.20843" lon="3.09421">
        <ele>302</ele>
        <time>2015-11-26T15:07:36Z</time>
      </trkpt>
      <trkpt lat="46.20831" lon="3.09403">
        <ele>300</ele>
        <time>2015-11-26T15:07:47Z</time>
      </trkpt>
      <trkpt lat="46.20828" lon="3.09386">
        <ele>296</ele>
        <time>2015-11-26T15:07:58Z</time>
      </trkpt>
      <trkpt lat="46.20792" lon="3.09351">
        <ele>293</ele>
        <time>2015-11-26T15:08:18Z</time>
      </trkpt>
      <trkpt lat="46.20785" lon="3.09341">
        <ele>300</ele>
        <time>2015-11-26T15:08:23Z</time>
      </trkpt>
      <trkpt lat="46.20781" lon="3.0933">
        <ele>295</ele>
        <time>2015-11-26T15:08:36Z</time>
      </trkpt>
      <trkpt lat="46.20762" lon="3.09312">
        <ele>303</ele>
        <time>2015-11-26T15:08:49Z</time>
      </trkpt>
      <trkpt lat="46.20746" lon="3.09293">
        <ele>305</ele>
        <time>2015-11-26T15:09:03Z</time>
      </trkpt>
      <trkpt lat="46.20742" lon="3.0929">
        <ele>307</ele>
        <time>2015-11-26T15:09:05Z</time>
      </trkpt>
      <trkpt lat="46.20727" lon="3.09272">
        <ele>310</ele>
        <time>2015-11-26T15:09:18Z</time>
      </trkpt>
      <trkpt lat="46.20722" lon="3.09265">
        <ele>313</ele>
        <time>2015-11-26T15:09:26Z</time>
      </trkpt>
      <trkpt lat="46.20714" lon="3.09248">
        <ele>312</ele>
        <time>2015-11-26T15:09:40Z</time>
      </trkpt>
      <trkpt lat="46.20701" lon="3.09226">
        <ele>306</ele>
        <time>2015-11-26T15:09:57Z</time>
      </trkpt>
      <trkpt lat="46.20699" lon="3.09226">
        <ele>307</ele>
        <time>2015-11-26T15:09:59Z</time>
      </trkpt>
      <trkpt lat="46.20685" lon="3.09212">
        <ele>310</ele>
        <time>2015-11-26T15:10:10Z</time>
      </trkpt>
      <trkpt lat="46.20674" lon="3.09198">
        <ele>307</ele>
        <time>2015-11-26T15:10:21Z</time>
      </trkpt>
      <trkpt lat="46.20664" lon="3.09182">
        <ele>304</ele>
        <time>2015-11-26T15:10:36Z</time>
      </trkpt>
      <trkpt lat="46.20644" lon="3.09161">
        <ele>308</ele>
        <time>2015-11-26T15:10:51Z</time>
      </trkpt>
      <trkpt lat="46.20641" lon="3.09162">
        <ele>314</ele>
        <time>2015-11-26T15:10:55Z</time>
      </trkpt>
      <trkpt lat="46.20632" lon="3.09152">
        <ele>309</ele>
        <time>2015-11-26T15:11:05Z</time>
      </trkpt>
      <trkpt lat="46.20614" lon="3.09136">
        <ele>311</ele>
        <time>2015-11-26T15:11:18Z</time>
      </trkpt>
      <trkpt lat="46.20607" lon="3.09142">
        <ele>311</ele>
        <time>2015-11-26T15:11:28Z</time>
      </trkpt>
      <trkpt lat="46.2059" lon="3.09167">
        <ele>311</ele>
        <time>2015-11-26T15:11:47Z</time>
      </trkpt>
      <trkpt lat="46.20586" lon="3.09172">
        <ele>310</ele>
        <time>2015-11-26T15:11:52Z</time>
      </trkpt>
      <trkpt lat="46.20579" lon="3.09181">
        <ele>311</ele>
        <time>2015-11-26T15:12:00Z</time>
      </trkpt>
      <trkpt lat="46.20555" lon="3.09208">
        <ele>318</ele>
        <time>2015-11-26T15:12:19Z</time>
      </trkpt>
      <trkpt lat="46.20552" lon="3.09209">
        <ele>317</ele>
        <time>2015-11-26T15:12:22Z</time>
      </trkpt>
      <trkpt lat="46.20543" lon="3.09214">
        <ele>313</ele>
        <time>2015-11-26T15:12:33Z</time>
      </trkpt>
      <trkpt lat="46.20532" lon="3.09232">
        <ele>316</ele>
        <time>2015-11-26T15:12:44Z</time>
      </trkpt>
      <trkpt lat="46.20511" lon="3.09264">
        <ele>307</ele>
        <time>2015-11-26T15:13:03Z</time>
      </trkpt>
      <trkpt lat="46.20505" lon="3.09272">
        <ele>311</ele>
        <time>2015-11-26T15:13:14Z</time>
      </trkpt>
      <trkpt lat="46.20495" lon="3.09272">
        <ele>309</ele>
        <time>2015-11-26T15:13:23Z</time>
      </trkpt>
      <trkpt lat="46.20487" lon="3.09282">
        <ele>310</ele>
        <time>2015-11-26T15:13:31Z</time>
      </trkpt>
      <trkpt lat="46.20471" lon="3.09294">
        <ele>308</ele>
        <time>2015-11-26T15:13:44Z</time>
      </trkpt>
      <trkpt lat="46.20464" lon="3.09298">
        <ele>306</ele>
        <time>2015-11-26T15:13:51Z</time>
      </trkpt>
      <trkpt lat="46.20453" lon="3.09312">
        <ele>306</ele>
        <time>2015-11-26T15:14:01Z</time>
      </trkpt>
      <trkpt lat="46.20434" lon="3.09327">
        <ele>309</ele>
        <time>2015-11-26T15:14:20Z</time>
      </trkpt>
      <trkpt lat="46.20427" lon="3.09332">
        <ele>309</ele>
        <time>2015-11-26T15:14:28Z</time>
      </trkpt>
      <trkpt lat="46.20417" lon="3.09343">
        <ele>305</ele>
        <time>2015-11-26T15:14:38Z</time>
      </trkpt>
      <trkpt lat="46.20402" lon="3.09357">
        <ele>309</ele>
        <time>2015-11-26T15:14:53Z</time>
      </trkpt>
      <trkpt lat="46.204" lon="3.09359">
        <ele>307</ele>
        <time>2015-11-26T15:14:59Z</time>
      </trkpt>
      <trkpt lat="46.20396" lon="3.09354">
        <ele>303</ele>
        <time>2015-11-26T15:15:08Z</time>
      </trkpt>
      <trkpt lat="46.20397" lon="3.0934">
        <ele>309</ele>
        <time>2015-11-26T15:15:18Z</time>
      </trkpt>
      <trkpt lat="46.20399" lon="3.09303">
        <ele>305</ele>
        <time>2015-11-26T15:15:39Z</time>
      </trkpt>
      <trkpt lat="46.204" lon="3.093">
        <ele>307</ele>
        <time>2015-11-26T15:15:42Z</time>
      </trkpt>
      <trkpt lat="46.20405" lon="3.09287">
        <ele>306</ele>
        <time>2015-11-26T15:15:53Z</time>
      </trkpt>
      <trkpt lat="46.20402" lon="3.09268">
        <ele>307</ele>
        <time>2015-11-26T15:16:02Z</time>
      </trkpt>
      <trkpt lat="46.204" lon="3.09247">
        <ele>307</ele>
        <time>2015-11-26T15:16:13Z</time>
      </trkpt>
      <trkpt lat="46.20402" lon="3.09216">
        <ele>306</ele>
        <time>2015-11-26T15:16:32Z</time>
      </trkpt>
      <trkpt lat="46.20401" lon="3.09208">
        <ele>310</ele>
        <time>2015-11-26T15:16:38Z</time>
      </trkpt>
      <trkpt lat="46.20399" lon="3.09191">
        <ele>313</ele>
        <time>2015-11-26T15:16:49Z</time>
      </trkpt>
      <trkpt lat="46.20396" lon="3.09172">
        <ele>313</ele>
        <time>2015-11-26T15:16:57Z</time>
      </trkpt>
      <trkpt lat="46.20396" lon="3.09161">
        <ele>313</ele>
        <time>2015-11-26T15:17:08Z</time>
      </trkpt>
      <trkpt lat="46.20399" lon="3.09139">
        <ele>312</ele>
        <time>2015-11-26T15:17:21Z</time>
      </trkpt>
      <trkpt lat="46.20401" lon="3.09127">
        <ele>314</ele>
        <time>2015-11-26T15:17:30Z</time>
      </trkpt>
      <trkpt lat="46.20388" lon="3.09105">
        <ele>316</ele>
        <time>2015-11-26T15:17:51Z</time>
      </trkpt>
      <trkpt lat="46.20388" lon="3.09105">
        <ele>317</ele>
        <time>2015-11-26T15:17:52Z</time>
      </trkpt>
      <trkpt lat="46.20374" lon="3.09095">
        <ele>312</ele>
        <time>2015-11-26T15:18:05Z</time>
      </trkpt>
      <trkpt lat="46.20362" lon="3.09096">
        <ele>314</ele>
        <time>2015-11-26T15:18:14Z</time>
      </trkpt>
      <trkpt lat="46.20349" lon="3.09092">
        <ele>317</ele>
        <time>2015-11-26T15:18:25Z</time>
      </trkpt>
      <trkpt lat="46.20332" lon="3.09089">
        <ele>314</ele>
        <time>2015-11-26T15:18:40Z</time>
      </trkpt>
      <trkpt lat="46.20324" lon="3.0908">
        <ele>312</ele>
        <time>2015-11-26T15:18:49Z</time>
      </trkpt>
      <trkpt lat="46.20306" lon="3.0908">
        <ele>313</ele>
        <time>2015-11-26T15:19:03Z</time>
      </trkpt>
      <trkpt lat="46.20297" lon="3.0908">
        <ele>318</ele>
        <time>2015-11-26T15:19:10Z</time>
      </trkpt>
      <trkpt lat="46.20274" lon="3.09078">
        <ele>319</ele>
        <time>2015-11-26T15:19:29Z</time>
      </trkpt>
      <trkpt lat="46.20272" lon="3.09083">
        <ele>316</ele>
        <time>2015-11-26T15:19:31Z</time>
      </trkpt>
      <trkpt lat="46.20256" lon="3.09075">
        <ele>315</ele>
        <time>2015-11-26T15:19:46Z</time>
      </trkpt>
      <trkpt lat="46.20245" lon="3.09074">
        <ele>316</ele>
        <time>2015-11-26T15:19:55Z</time>
      </trkpt>
      <trkpt lat="46.20233" lon="3.09074">
        <ele>321</ele>
        <time>2015-11-26T15:20:04Z</time>
      </trkpt>
      <trkpt lat="46.20219" lon="3.09068">
        <ele>316</ele>
        <time>2015-11-26T15:20:17Z</time>
      </trkpt>
      <trkpt lat="46.20212" lon="3.09063">
        <ele>311</ele>
        <time>2015-11-26T15:20:26Z</time>
      </trkpt>
      <trkpt lat="46.20199" lon="3.09059">
        <ele>309</ele>
        <time>2015-11-26T15:20:37Z</time>
      </trkpt>
      <trkpt lat="46.20172" lon="3.09064">
        <ele>313</ele>
        <time>2015-11-26T15:20:57Z</time>
      </trkpt>
      <trkpt lat="46.20165" lon="3.09057">
        <ele>314</ele>
        <time>2015-11-26T15:21:05Z</time>
      </trkpt>
      <trkpt lat="46.20158" lon="3.0906">
        <ele>314</ele>
        <time>2015-11-26T15:21:12Z</time>
      </trkpt>
      <trkpt lat="46.20154" lon="3.09052">
        <ele>313</ele>
        <time>2015-11-26T15:21:21Z</time>
      </trkpt>
      <trkpt lat="46.20154" lon="3.09031">
        <ele>317</ele>
        <time>2015-11-26T15:21:35Z</time>
      </trkpt>
      <trkpt lat="46.20155" lon="3.09017">
        <ele>313</ele>
        <time>2015-11-26T15:21:43Z</time>
      </trkpt>
      <trkpt lat="46.20155" lon="3.08989">
        <ele>317</ele>
        <time>2015-11-26T15:22:00Z</time>
      </trkpt>
      <trkpt lat="46.20155" lon="3.08977">
        <ele>317</ele>
        <time>2015-11-26T15:22:07Z</time>
      </trkpt>
      <trkpt lat="46.20152" lon="3.08952">
        <ele>315</ele>
        <time>2015-11-26T15:22:24Z</time>
      </trkpt>
      <trkpt lat="46.20153" lon="3.08948">
        <ele>315</ele>
        <time>2015-11-26T15:22:27Z</time>
      </trkpt>
      <trkpt lat="46.20155" lon="3.08933">
        <ele>317</ele>
        <time>2015-11-26T15:22:38Z</time>
      </trkpt>
      <trkpt lat="46.20155" lon="3.08914">
        <ele>324</ele>
        <time>2015-11-26T15:22:49Z</time>
      </trkpt>
      <trkpt lat="46.20156" lon="3.08884">
        <ele>325</ele>
        <time>2015-11-26T15:23:09Z</time>
      </trkpt>
      <trkpt lat="46.20156" lon="3.0888">
        <ele>325</ele>
        <time>2015-11-26T15:23:11Z</time>
      </trkpt>
      <trkpt lat="46.20156" lon="3.0886">
        <ele>324</ele>
        <time>2015-11-26T15:23:22Z</time>
      </trkpt>
      <trkpt lat="46.20153" lon="3.08837">
        <ele>321</ele>
        <time>2015-11-26T15:23:38Z</time>
      </trkpt>
      <trkpt lat="46.20156" lon="3.08819">
        <ele>326</ele>
        <time>2015-11-26T15:23:49Z</time>
      </trkpt>
      <trkpt lat="46.20154" lon="3.0881">
        <ele>324</ele>
        <time>2015-11-26T15:23:55Z</time>
      </trkpt>
      <trkpt lat="46.20152" lon="3.08783">
        <ele>320</ele>
        <time>2015-11-26T15:24:09Z</time>
      </trkpt>
      <trkpt lat="46.20154" lon="3.08766">
        <ele>329</ele>
        <time>2015-11-26T15:24:24Z</time>
      </trkpt>
      <trkpt lat="46.20151" lon="3.08757">
        <ele>326</ele>
        <time>2015-11-26T15:24:30Z</time>
      </trkpt>
      <trkpt lat="46.20152" lon="3.08737">
        <ele>328</ele>
        <time>2015-11-26T15:24:45Z</time>
      </trkpt>
      <trkpt lat="46.20153" lon="3.08726">
        <ele>326</ele>
        <time>2015-11-26T15:24:51Z</time>
      </trkpt>
      <trkpt lat="46.20146" lon="3.08701">
        <ele>323</ele>
        <time>2015-11-26T15:25:08Z</time>
      </trkpt>
      <trkpt lat="46.20146" lon="3.087">
        <ele>324</ele>
        <time>2015-11-26T15:25:13Z</time>
      </trkpt>
      <trkpt lat="46.20145" lon="3.08689">
        <ele>324</ele>
        <time>2015-11-26T15:25:19Z</time>
      </trkpt>
      <trkpt lat="46.20141" lon="3.08676">
        <ele>319</ele>
        <time>2015-11-26T15:25:26Z</time>
      </trkpt>
      <trkpt lat="46.20141" lon="3.08649">
        <ele>316</ele>
        <time>2015-11-26T15:25:42Z</time>
      </trkpt>
      <trkpt lat="46.20137" lon="3.0863">
        <ele>321</ele>
        <time>2015-11-26T15:25:54Z</time>
      </trkpt>
      <trkpt lat="46.20137" lon="3.08612">
        <ele>324</ele>
        <time>2015-11-26T15:26:08Z</time>
      </trkpt>
      <trkpt lat="46.20133" lon="3.08601">
        <ele>327</ele>
        <time>2015-11-26T15:26:16Z</time>
      </trkpt>
      <trkpt lat="46.20126" lon="3.08573">
        <ele>330</ele>
        <time>2015-11-26T15:26:31Z</time>
      </trkpt>
      <trkpt lat="46.20126" lon="3.08572">
        <ele>330</ele>
        <time>2015-11-26T15:26:32Z</time>
      </trkpt>
      <trkpt lat="46.20124" lon="3.08566">
        <ele>328</ele>
        <time>2015-11-26T15:26:35Z</time>
      </trkpt>
      <trkpt lat="46.20118" lon="3.08539">
        <ele>331</ele>
        <time>2015-11-26T15:26:51Z</time>
      </trkpt>
      <trkpt lat="46.20113" lon="3.08516">
        <ele>329</ele>
        <time>2015-11-26T15:27:07Z</time>
      </trkpt>
      <trkpt lat="46.20112" lon="3.08513">
        <ele>327</ele>
        <time>2015-11-26T15:27:10Z</time>
      </trkpt>
      <trkpt lat="46.20109" lon="3.08498">
        <ele>329</ele>
        <time>2015-11-26T15:27:19Z</time>
      </trkpt>
      <trkpt lat="46.20105" lon="3.08483">
        <ele>325</ele>
        <time>2015-11-26T15:27:30Z</time>
      </trkpt>
      <trkpt lat="46.20093" lon="3.08468">
        <ele>321</ele>
        <time>2015-11-26T15:27:44Z</time>
      </trkpt>
      <trkpt lat="46.2008" lon="3.08452">
        <ele>321</ele>
        <time>2015-11-26T15:28:00Z</time>
      </trkpt>
      <trkpt lat="46.20076" lon="3.08447">
        <ele>320</ele>
        <time>2015-11-26T15:28:03Z</time>
      </trkpt>
      <trkpt lat="46.20064" lon="3.08446">
        <ele>319</ele>
        <time>2015-11-26T15:28:17Z</time>
      </trkpt>
      <trkpt lat="46.20056" lon="3.08438">
        <ele>323</ele>
        <time>2015-11-26T15:28:25Z</time>
      </trkpt>
      <trkpt lat="46.20044" lon="3.08412">
        <ele>321</ele>
        <time>2015-11-26T15:28:39Z</time>
      </trkpt>
      <trkpt lat="46.2004" lon="3.08383">
        <ele>311</ele>
        <time>2015-11-26T15:28:54Z</time>
      </trkpt>
      <trkpt lat="46.20039" lon="3.08379">
        <ele>312</ele>
        <time>2015-11-26T15:28:59Z</time>
      </trkpt>
      <trkpt lat="46.20026" lon="3.08361">
        <ele>320</ele>
        <time>2015-11-26T15:29:16Z</time>
      </trkpt>
      <trkpt lat="46.20023" lon="3.08353">
        <ele>316</ele>
        <time>2015-11-26T15:29:20Z</time>
      </trkpt>
      <trkpt lat="46.20012" lon="3.08336">
        <ele>325</ele>
        <time>2015-11-26T15:29:38Z</time>
      </trkpt>
      <trkpt lat="46.20017" lon="3.08319">
        <ele>326</ele>
        <time>2015-11-26T15:29:43Z</time>
      </trkpt>
      <trkpt lat="46.20003" lon="3.08302">
        <ele>325</ele>
        <time>2015-11-26T15:30:00Z</time>
      </trkpt>
      <trkpt lat="46.19999" lon="3.08302">
        <ele>327</ele>
        <time>2015-11-26T15:30:04Z</time>
      </trkpt>
      <trkpt lat="46.1999" lon="3.08292">
        <ele>321</ele>
        <time>2015-11-26T15:30:15Z</time>
      </trkpt>
      <trkpt lat="46.19979" lon="3.0828">
        <ele>316</ele>
        <time>2015-11-26T15:30:26Z</time>
      </trkpt>
      <trkpt lat="46.19972" lon="3.08267">
        <ele>315</ele>
        <time>2015-11-26T15:30:37Z</time>
      </trkpt>
      <trkpt lat="46.19975" lon="3.08243">
        <ele>323</ele>
        <time>2015-11-26T15:30:53Z</time>
      </trkpt>
      <trkpt lat="46.19964" lon="3.08219">
        <ele>325</ele>
        <time>2015-11-26T15:31:00Z</time>
      </trkpt>
      <trkpt lat="46.1997" lon="3.08213">
        <ele>318</ele>
        <time>2015-11-26T15:31:10Z</time>
      </trkpt>
      <trkpt lat="46.19964" lon="3.08186">
        <ele>314</ele>
        <time>2015-11-26T15:31:22Z</time>
      </trkpt>
      <trkpt lat="46.1996" lon="3.08166">
        <ele>323</ele>
        <time>2015-11-26T15:31:40Z</time>
      </trkpt>
      <trkpt lat="46.1996" lon="3.0816">
        <ele>323</ele>
        <time>2015-11-26T15:31:43Z</time>
      </trkpt>
      <trkpt lat="46.19962" lon="3.08149">
        <ele>326</ele>
        <time>2015-11-26T15:31:54Z</time>
      </trkpt>
      <trkpt lat="46.19953" lon="3.08114">
        <ele>324</ele>
        <time>2015-11-26T15:32:11Z</time>
      </trkpt>
      <trkpt lat="46.19955" lon="3.08094">
        <ele>329</ele>
        <time>2015-11-26T15:32:26Z</time>
      </trkpt>
      <trkpt lat="46.19955" lon="3.08093">
        <ele>330</ele>
        <time>2015-11-26T15:32:27Z</time>
      </trkpt>
      <trkpt lat="46.19949" lon="3.08082">
        <ele>330</ele>
        <time>2015-11-26T15:32:38Z</time>
      </trkpt>
      <trkpt lat="46.19949" lon="3.08078">
        <ele>337</ele>
        <time>2015-11-26T15:32:55Z</time>
      </trkpt>
      <trkpt lat="46.19949" lon="3.08077">
        <ele>337</ele>
        <time>2015-11-26T15:33:00Z</time>
      </trkpt>
      <trkpt lat="46.19949" lon="3.08077">
        <ele>337</ele>
        <time>2015-11-26T15:33:02Z</time>
      </trkpt>
      <trkpt lat="46.19949" lon="3.08077">
        <ele>337</ele>
        <time>2015-11-26T15:33:04Z</time>
      </trkpt>
      <trkpt lat="46.19949" lon="3.08077">
        <ele>337</ele>
        <time>2015-11-26T15:33:09Z</time>
      </trkpt>
      <trkpt lat="46.19957" lon="3.08024">
        <ele>338</ele>
        <time>2015-11-26T15:33:29Z</time>
      </trkpt>
      <trkpt lat="46.19957" lon="3.08">
        <ele>336</ele>
        <time>2015-11-26T15:33:37Z</time>
      </trkpt>
      <trkpt lat="46.19956" lon="3.07986">
        <ele>337</ele>
        <time>2015-11-26T15:33:42Z</time>
      </trkpt>
      <trkpt lat="46.19958" lon="3.07966">
        <ele>336</ele>
        <time>2015-11-26T15:33:58Z</time>
      </trkpt>
      <trkpt lat="46.19955" lon="3.07951">
        <ele>336</ele>
        <time>2015-11-26T15:34:07Z</time>
      </trkpt>
      <trkpt lat="46.19958" lon="3.07934">
        <ele>338</ele>
        <time>2015-11-26T15:34:19Z</time>
      </trkpt>
      <trkpt lat="46.19953" lon="3.07921">
        <ele>335</ele>
        <time>2015-11-26T15:34:27Z</time>
      </trkpt>
      <trkpt lat="46.19945" lon="3.07911">
        <ele>337</ele>
        <time>2015-11-26T15:34:36Z</time>
      </trkpt>
      <trkpt lat="46.19928" lon="3.07886">
        <ele>329</ele>
        <time>2015-11-26T15:34:51Z</time>
      </trkpt>
      <trkpt lat="46.19933" lon="3.0787">
        <ele>333</ele>
        <time>2015-11-26T15:35:06Z</time>
      </trkpt>
      <trkpt lat="46.19931" lon="3.07859">
        <ele>334</ele>
        <time>2015-11-26T15:35:15Z</time>
      </trkpt>
      <trkpt lat="46.19931" lon="3.07859">
        <ele>336</ele>
        <time>2015-11-26T15:35:20Z</time>
      </trkpt>
      <trkpt lat="46.1993" lon="3.07859">
        <ele>338</ele>
        <time>2015-11-26T15:35:26Z</time>
      </trkpt>
      <trkpt lat="46.1993" lon="3.07859">
        <ele>338</ele>
        <time>2015-11-26T15:35:30Z</time>
      </trkpt>
      <trkpt lat="46.1993" lon="3.07859">
        <ele>338</ele>
        <time>2015-11-26T15:35:32Z</time>
      </trkpt>
    </trkseg>
  </trk>
</gpx>